<?xml version="1.0" encoding="UTF-8" standalone="no" ?>
<gpx xmlns="http://www.topografix.com/GPX/1/1" xmlns:xsi="http://www.w3.org/2001/XMLSchema-instance" xsi:schemaLocation="http://www.topografix.com/GPX/1/1 http://www.topografix.com/GPX/1/1/gpx.xsd" version="1.1" creator="VisuGPX - https://www.visugpx.com">
  <metadata>
    <name>2022-04-10 dans le Hohwald</name>
  </metadata>
  <trk>
    <name><![CDATA[2022-04-10 dans le Hohwald]]></name>
    <extensions>
      <line xmlns="http://www.topografix.com/GPX/gpx_style/0/2">
        <color>0000FF</color>
        <opacity>0.59</opacity>
        <width>6.0</width>
      </line>
    </extensions>
    <trkseg>
      <trkpt lat="48.40019" lon="7.3065">
        <ele>650</ele>
        <time>2022-04-10T08:43:34.000Z</time>
      </trkpt>
      <trkpt lat="48.40022" lon="7.30654">
        <ele>649.8</ele>
        <time>2022-04-10T08:43:44.000Z</time>
      </trkpt>
      <trkpt lat="48.40028" lon="7.30648">
        <ele>650.3</ele>
        <time>2022-04-10T08:43:54.000Z</time>
      </trkpt>
      <trkpt lat="48.40031" lon="7.30628">
        <ele>652</ele>
        <time>2022-04-10T08:44:04.000Z</time>
      </trkpt>
      <trkpt lat="48.40032" lon="7.30612">
        <ele>653.2</ele>
        <time>2022-04-10T08:44:14.091Z</time>
      </trkpt>
      <trkpt lat="48.40035" lon="7.30594">
        <ele>655.5</ele>
        <time>2022-04-10T08:44:24.000Z</time>
      </trkpt>
      <trkpt lat="48.40033" lon="7.30579">
        <ele>657.1</ele>
        <time>2022-04-10T08:44:33.644Z</time>
      </trkpt>
      <trkpt lat="48.4003" lon="7.30565">
        <ele>658.3</ele>
        <time>2022-04-10T08:44:43.000Z</time>
      </trkpt>
      <trkpt lat="48.40026" lon="7.30548">
        <ele>659.6</ele>
        <time>2022-04-10T08:44:53.000Z</time>
      </trkpt>
      <trkpt lat="48.40023" lon="7.30531">
        <ele>661.2</ele>
        <time>2022-04-10T08:45:02.922Z</time>
      </trkpt>
      <trkpt lat="48.40015" lon="7.30517">
        <ele>661.6</ele>
        <time>2022-04-10T08:45:12.000Z</time>
      </trkpt>
      <trkpt lat="48.40011" lon="7.30502">
        <ele>662.4</ele>
        <time>2022-04-10T08:45:21.605Z</time>
      </trkpt>
      <trkpt lat="48.40011" lon="7.30486">
        <ele>664.1</ele>
        <time>2022-04-10T08:45:31.000Z</time>
      </trkpt>
      <trkpt lat="48.40014" lon="7.30469">
        <ele>666.3</ele>
        <time>2022-04-10T08:45:41.000Z</time>
      </trkpt>
      <trkpt lat="48.40012" lon="7.3045">
        <ele>668.2</ele>
        <time>2022-04-10T08:45:51.000Z</time>
      </trkpt>
      <trkpt lat="48.40012" lon="7.30431">
        <ele>669.7</ele>
        <time>2022-04-10T08:46:01.086Z</time>
      </trkpt>
      <trkpt lat="48.4001" lon="7.30414">
        <ele>670.7</ele>
        <time>2022-04-10T08:46:10.160Z</time>
      </trkpt>
      <trkpt lat="48.40005" lon="7.304">
        <ele>671.6</ele>
        <time>2022-04-10T08:46:19.860Z</time>
      </trkpt>
      <trkpt lat="48.40001" lon="7.30385">
        <ele>672.5</ele>
        <time>2022-04-10T08:46:29.963Z</time>
      </trkpt>
      <trkpt lat="48.39996" lon="7.30367">
        <ele>674.6</ele>
        <time>2022-04-10T08:46:39.384Z</time>
      </trkpt>
      <trkpt lat="48.4" lon="7.30354">
        <ele>675.6</ele>
        <time>2022-04-10T08:46:48.506Z</time>
      </trkpt>
      <trkpt lat="48.40002" lon="7.30344">
        <ele>676.6</ele>
        <time>2022-04-10T08:46:57.943Z</time>
      </trkpt>
      <trkpt lat="48.40003" lon="7.30327">
        <ele>678.2</ele>
        <time>2022-04-10T08:47:08.020Z</time>
      </trkpt>
      <trkpt lat="48.40003" lon="7.30316">
        <ele>679.3</ele>
        <time>2022-04-10T08:47:18.000Z</time>
      </trkpt>
      <trkpt lat="48.39999" lon="7.30323">
        <ele>678.3</ele>
        <time>2022-04-10T08:47:28.081Z</time>
      </trkpt>
      <trkpt lat="48.40004" lon="7.30348">
        <ele>676.5</ele>
        <time>2022-04-10T08:47:37.862Z</time>
      </trkpt>
      <trkpt lat="48.40003" lon="7.30342">
        <ele>676.9</ele>
        <time>2022-04-10T08:47:47.000Z</time>
      </trkpt>
      <trkpt lat="48.39996" lon="7.30324">
        <ele>678.6</ele>
        <time>2022-04-10T08:47:56.743Z</time>
      </trkpt>
      <trkpt lat="48.40004" lon="7.303">
        <ele>681.3</ele>
        <time>2022-04-10T08:48:05.793Z</time>
      </trkpt>
      <trkpt lat="48.40001" lon="7.30285">
        <ele>682.4</ele>
        <time>2022-04-10T08:48:14.942Z</time>
      </trkpt>
      <trkpt lat="48.40004" lon="7.3027">
        <ele>685</ele>
        <time>2022-04-10T08:48:25.090Z</time>
      </trkpt>
      <trkpt lat="48.40006" lon="7.30256">
        <ele>687.2</ele>
        <time>2022-04-10T08:48:34.500Z</time>
      </trkpt>
      <trkpt lat="48.40006" lon="7.30247">
        <ele>688.5</ele>
        <time>2022-04-10T08:48:43.523Z</time>
      </trkpt>
      <trkpt lat="48.40007" lon="7.30234">
        <ele>690.1</ele>
        <time>2022-04-10T08:48:52.763Z</time>
      </trkpt>
      <trkpt lat="48.40005" lon="7.30227">
        <ele>690.3</ele>
        <time>2022-04-10T08:49:01.781Z</time>
      </trkpt>
      <trkpt lat="48.3999" lon="7.30216">
        <ele>694.4</ele>
        <time>2022-04-10T08:49:11.680Z</time>
      </trkpt>
      <trkpt lat="48.40007" lon="7.30204">
        <ele>695.2</ele>
        <time>2022-04-10T08:49:20.724Z</time>
      </trkpt>
      <trkpt lat="48.4002" lon="7.30198">
        <ele>698.7</ele>
        <time>2022-04-10T08:49:29.841Z</time>
      </trkpt>
      <trkpt lat="48.40023" lon="7.30186">
        <ele>702</ele>
        <time>2022-04-10T08:49:39.521Z</time>
      </trkpt>
      <trkpt lat="48.40027" lon="7.30179">
        <ele>704.4</ele>
        <time>2022-04-10T08:49:49.000Z</time>
      </trkpt>
      <trkpt lat="48.40027" lon="7.30172">
        <ele>705.7</ele>
        <time>2022-04-10T08:49:59.000Z</time>
      </trkpt>
      <trkpt lat="48.40018" lon="7.30171">
        <ele>704.2</ele>
        <time>2022-04-10T08:50:08.940Z</time>
      </trkpt>
      <trkpt lat="48.40013" lon="7.30171">
        <ele>703.5</ele>
        <time>2022-04-10T08:50:18.000Z</time>
      </trkpt>
      <trkpt lat="48.40017" lon="7.30169">
        <ele>704.6</ele>
        <time>2022-04-10T08:50:28.000Z</time>
      </trkpt>
      <trkpt lat="48.4002" lon="7.30171">
        <ele>704.5</ele>
        <time>2022-04-10T08:50:38.000Z</time>
      </trkpt>
      <trkpt lat="48.4002" lon="7.30169">
        <ele>705.1</ele>
        <time>2022-04-10T08:50:58.000Z</time>
      </trkpt>
      <trkpt lat="48.4002" lon="7.30166">
        <ele>705.8</ele>
        <time>2022-04-10T08:51:08.000Z</time>
      </trkpt>
      <trkpt lat="48.40017" lon="7.3017">
        <ele>704.4</ele>
        <time>2022-04-10T08:51:18.000Z</time>
      </trkpt>
      <trkpt lat="48.40021" lon="7.30168">
        <ele>705.5</ele>
        <time>2022-04-10T08:51:28.000Z</time>
      </trkpt>
      <trkpt lat="48.4003" lon="7.30172">
        <ele>706.2</ele>
        <time>2022-04-10T08:51:38.000Z</time>
      </trkpt>
      <trkpt lat="48.40031" lon="7.30176">
        <ele>705.6</ele>
        <time>2022-04-10T08:51:48.000Z</time>
      </trkpt>
      <trkpt lat="48.40031" lon="7.30178">
        <ele>705.1</ele>
        <time>2022-04-10T08:52:08.439Z</time>
      </trkpt>
      <trkpt lat="48.40041" lon="7.30185">
        <ele>705.5</ele>
        <time>2022-04-10T08:52:17.703Z</time>
      </trkpt>
      <trkpt lat="48.40038" lon="7.30178">
        <ele>706.5</ele>
        <time>2022-04-10T08:52:26.745Z</time>
      </trkpt>
      <trkpt lat="48.40038" lon="7.30169">
        <ele>708.3</ele>
        <time>2022-04-10T08:52:36.102Z</time>
      </trkpt>
      <trkpt lat="48.40038" lon="7.30165">
        <ele>709.3</ele>
        <time>2022-04-10T08:52:46.000Z</time>
      </trkpt>
      <trkpt lat="48.40037" lon="7.30165">
        <ele>709.1</ele>
        <time>2022-04-10T08:52:56.000Z</time>
      </trkpt>
      <trkpt lat="48.40047" lon="7.30173">
        <ele>709.2</ele>
        <time>2022-04-10T08:53:05.643Z</time>
      </trkpt>
      <trkpt lat="48.40046" lon="7.3018">
        <ele>707.5</ele>
        <time>2022-04-10T08:53:15.000Z</time>
      </trkpt>
      <trkpt lat="48.40036" lon="7.30178">
        <ele>706</ele>
        <time>2022-04-10T08:53:24.081Z</time>
      </trkpt>
      <trkpt lat="48.40032" lon="7.30176">
        <ele>705.6</ele>
        <time>2022-04-10T08:53:33.601Z</time>
      </trkpt>
      <trkpt lat="48.40046" lon="7.30185">
        <ele>706.4</ele>
        <time>2022-04-10T08:53:43.000Z</time>
      </trkpt>
      <trkpt lat="48.40063" lon="7.30176">
        <ele>711.6</ele>
        <time>2022-04-10T08:53:52.781Z</time>
      </trkpt>
      <trkpt lat="48.40068" lon="7.30165">
        <ele>714.6</ele>
        <time>2022-04-10T08:54:02.000Z</time>
      </trkpt>
      <trkpt lat="48.40062" lon="7.3015">
        <ele>716.7</ele>
        <time>2022-04-10T08:54:12.000Z</time>
      </trkpt>
      <trkpt lat="48.40059" lon="7.30137">
        <ele>718.9</ele>
        <time>2022-04-10T08:54:21.782Z</time>
      </trkpt>
      <trkpt lat="48.40059" lon="7.30126">
        <ele>721.2</ele>
        <time>2022-04-10T08:54:31.099Z</time>
      </trkpt>
      <trkpt lat="48.40056" lon="7.30118">
        <ele>722.5</ele>
        <time>2022-04-10T08:54:41.000Z</time>
      </trkpt>
      <trkpt lat="48.4005" lon="7.30104">
        <ele>723.9</ele>
        <time>2022-04-10T08:54:51.000Z</time>
      </trkpt>
      <trkpt lat="48.40054" lon="7.30092">
        <ele>725.9</ele>
        <time>2022-04-10T08:55:00.121Z</time>
      </trkpt>
      <trkpt lat="48.4005" lon="7.30082">
        <ele>726.8</ele>
        <time>2022-04-10T08:55:09.780Z</time>
      </trkpt>
      <trkpt lat="48.40049" lon="7.30065">
        <ele>729.3</ele>
        <time>2022-04-10T08:55:18.862Z</time>
      </trkpt>
      <trkpt lat="48.40055" lon="7.30047">
        <ele>732.2</ele>
        <time>2022-04-10T08:55:27.998Z</time>
      </trkpt>
      <trkpt lat="48.40058" lon="7.30028">
        <ele>735</ele>
        <time>2022-04-10T08:55:37.119Z</time>
      </trkpt>
      <trkpt lat="48.40058" lon="7.30006">
        <ele>737.4</ele>
        <time>2022-04-10T08:55:46.783Z</time>
      </trkpt>
      <trkpt lat="48.40065" lon="7.29991">
        <ele>738.9</ele>
        <time>2022-04-10T08:55:56.000Z</time>
      </trkpt>
      <trkpt lat="48.40066" lon="7.29978">
        <ele>740.1</ele>
        <time>2022-04-10T08:56:05.619Z</time>
      </trkpt>
      <trkpt lat="48.40064" lon="7.29963">
        <ele>741.6</ele>
        <time>2022-04-10T08:56:14.621Z</time>
      </trkpt>
      <trkpt lat="48.40063" lon="7.29944">
        <ele>743.5</ele>
        <time>2022-04-10T08:56:24.000Z</time>
      </trkpt>
      <trkpt lat="48.40055" lon="7.29932">
        <ele>745.5</ele>
        <time>2022-04-10T08:56:33.940Z</time>
      </trkpt>
      <trkpt lat="48.40054" lon="7.29932">
        <ele>745.7</ele>
        <time>2022-04-10T08:56:42.998Z</time>
      </trkpt>
      <trkpt lat="48.40041" lon="7.2994">
        <ele>746.8</ele>
        <time>2022-04-10T08:56:52.600Z</time>
      </trkpt>
      <trkpt lat="48.40031" lon="7.29947">
        <ele>747.1</ele>
        <time>2022-04-10T08:57:01.842Z</time>
      </trkpt>
      <trkpt lat="48.40021" lon="7.29955">
        <ele>747.7</ele>
        <time>2022-04-10T08:57:11.000Z</time>
      </trkpt>
      <trkpt lat="48.40016" lon="7.29964">
        <ele>747</ele>
        <time>2022-04-10T08:57:20.622Z</time>
      </trkpt>
      <trkpt lat="48.40009" lon="7.29969">
        <ele>747.3</ele>
        <time>2022-04-10T08:57:30.521Z</time>
      </trkpt>
      <trkpt lat="48.40002" lon="7.29978">
        <ele>746.7</ele>
        <time>2022-04-10T08:57:39.822Z</time>
      </trkpt>
      <trkpt lat="48.39992" lon="7.29978">
        <ele>748.1</ele>
        <time>2022-04-10T08:57:48.919Z</time>
      </trkpt>
      <trkpt lat="48.39978" lon="7.29975">
        <ele>750.6</ele>
        <time>2022-04-10T08:57:58.323Z</time>
      </trkpt>
      <trkpt lat="48.39973" lon="7.29967">
        <ele>753.1</ele>
        <time>2022-04-10T08:58:08.000Z</time>
      </trkpt>
      <trkpt lat="48.39984" lon="7.29965">
        <ele>751.7</ele>
        <time>2022-04-10T08:58:17.518Z</time>
      </trkpt>
      <trkpt lat="48.39989" lon="7.29954">
        <ele>753</ele>
        <time>2022-04-10T08:58:26.961Z</time>
      </trkpt>
      <trkpt lat="48.39995" lon="7.29942">
        <ele>754.3</ele>
        <time>2022-04-10T08:58:36.239Z</time>
      </trkpt>
      <trkpt lat="48.39999" lon="7.29932">
        <ele>755.5</ele>
        <time>2022-04-10T08:58:45.560Z</time>
      </trkpt>
      <trkpt lat="48.40002" lon="7.29922">
        <ele>756.6</ele>
        <time>2022-04-10T08:58:55.091Z</time>
      </trkpt>
      <trkpt lat="48.40009" lon="7.2991">
        <ele>757.6</ele>
        <time>2022-04-10T08:59:04.763Z</time>
      </trkpt>
      <trkpt lat="48.40011" lon="7.29903">
        <ele>758.3</ele>
        <time>2022-04-10T08:59:13.901Z</time>
      </trkpt>
      <trkpt lat="48.40009" lon="7.29893">
        <ele>760.3</ele>
        <time>2022-04-10T08:59:23.000Z</time>
      </trkpt>
      <trkpt lat="48.40008" lon="7.29876">
        <ele>763.1</ele>
        <time>2022-04-10T08:59:32.842Z</time>
      </trkpt>
      <trkpt lat="48.40003" lon="7.29867">
        <ele>765.4</ele>
        <time>2022-04-10T08:59:42.072Z</time>
      </trkpt>
      <trkpt lat="48.39999" lon="7.29855">
        <ele>768.4</ele>
        <time>2022-04-10T08:59:52.000Z</time>
      </trkpt>
      <trkpt lat="48.39998" lon="7.29847">
        <ele>770</ele>
        <time>2022-04-10T09:00:02.020Z</time>
      </trkpt>
      <trkpt lat="48.3999" lon="7.29835">
        <ele>773.6</ele>
        <time>2022-04-10T09:00:12.000Z</time>
      </trkpt>
      <trkpt lat="48.39986" lon="7.29824">
        <ele>776.1</ele>
        <time>2022-04-10T09:00:21.719Z</time>
      </trkpt>
      <trkpt lat="48.3998" lon="7.29818">
        <ele>778.3</ele>
        <time>2022-04-10T09:00:30.740Z</time>
      </trkpt>
      <trkpt lat="48.39976" lon="7.29813">
        <ele>779.8</ele>
        <time>2022-04-10T09:00:40.069Z</time>
      </trkpt>
      <trkpt lat="48.3997" lon="7.29807">
        <ele>782.1</ele>
        <time>2022-04-10T09:00:50.000Z</time>
      </trkpt>
      <trkpt lat="48.39963" lon="7.29801">
        <ele>784.2</ele>
        <time>2022-04-10T09:00:59.781Z</time>
      </trkpt>
      <trkpt lat="48.39953" lon="7.29795">
        <ele>786.6</ele>
        <time>2022-04-10T09:01:08.822Z</time>
      </trkpt>
      <trkpt lat="48.3995" lon="7.29785">
        <ele>788.3</ele>
        <time>2022-04-10T09:01:18.000Z</time>
      </trkpt>
      <trkpt lat="48.39949" lon="7.29788">
        <ele>788.2</ele>
        <time>2022-04-10T09:01:28.089Z</time>
      </trkpt>
      <trkpt lat="48.39948" lon="7.29779">
        <ele>789.2</ele>
        <time>2022-04-10T09:01:37.683Z</time>
      </trkpt>
      <trkpt lat="48.39948" lon="7.29764">
        <ele>791.2</ele>
        <time>2022-04-10T09:01:46.784Z</time>
      </trkpt>
      <trkpt lat="48.39949" lon="7.29752">
        <ele>792.6</ele>
        <time>2022-04-10T09:01:55.841Z</time>
      </trkpt>
      <trkpt lat="48.39946" lon="7.29744">
        <ele>794.3</ele>
        <time>2022-04-10T09:02:05.000Z</time>
      </trkpt>
      <trkpt lat="48.39938" lon="7.29735">
        <ele>796.1</ele>
        <time>2022-04-10T09:02:14.680Z</time>
      </trkpt>
      <trkpt lat="48.39932" lon="7.29727">
        <ele>797.7</ele>
        <time>2022-04-10T09:02:24.000Z</time>
      </trkpt>
      <trkpt lat="48.39929" lon="7.29713">
        <ele>799.7</ele>
        <time>2022-04-10T09:02:34.000Z</time>
      </trkpt>
      <trkpt lat="48.39927" lon="7.297">
        <ele>801.2</ele>
        <time>2022-04-10T09:02:44.083Z</time>
      </trkpt>
      <trkpt lat="48.39925" lon="7.29688">
        <ele>802.9</ele>
        <time>2022-04-10T09:02:54.000Z</time>
      </trkpt>
      <trkpt lat="48.39921" lon="7.29679">
        <ele>804.5</ele>
        <time>2022-04-10T09:03:03.087Z</time>
      </trkpt>
      <trkpt lat="48.3992" lon="7.29668">
        <ele>806.2</ele>
        <time>2022-04-10T09:03:12.499Z</time>
      </trkpt>
      <trkpt lat="48.3992" lon="7.29659">
        <ele>807.3</ele>
        <time>2022-04-10T09:03:21.700Z</time>
      </trkpt>
      <trkpt lat="48.3991" lon="7.29647">
        <ele>810.2</ele>
        <time>2022-04-10T09:03:31.023Z</time>
      </trkpt>
      <trkpt lat="48.39909" lon="7.29639">
        <ele>811.5</ele>
        <time>2022-04-10T09:03:41.000Z</time>
      </trkpt>
      <trkpt lat="48.39909" lon="7.29628">
        <ele>812.6</ele>
        <time>2022-04-10T09:03:51.000Z</time>
      </trkpt>
      <trkpt lat="48.39907" lon="7.29618">
        <ele>814.3</ele>
        <time>2022-04-10T09:04:01.000Z</time>
      </trkpt>
      <trkpt lat="48.39901" lon="7.29602">
        <ele>817.7</ele>
        <time>2022-04-10T09:04:11.704Z</time>
      </trkpt>
      <trkpt lat="48.39895" lon="7.29592">
        <ele>820.6</ele>
        <time>2022-04-10T09:04:21.000Z</time>
      </trkpt>
      <trkpt lat="48.39892" lon="7.29583">
        <ele>822.5</ele>
        <time>2022-04-10T09:04:31.081Z</time>
      </trkpt>
      <trkpt lat="48.39889" lon="7.29573">
        <ele>824.8</ele>
        <time>2022-04-10T09:04:40.119Z</time>
      </trkpt>
      <trkpt lat="48.3989" lon="7.29562">
        <ele>826.6</ele>
        <time>2022-04-10T09:04:49.843Z</time>
      </trkpt>
      <trkpt lat="48.39889" lon="7.29553">
        <ele>828.3</ele>
        <time>2022-04-10T09:04:58.925Z</time>
      </trkpt>
      <trkpt lat="48.39883" lon="7.2954">
        <ele>830.5</ele>
        <time>2022-04-10T09:05:09.000Z</time>
      </trkpt>
      <trkpt lat="48.3988" lon="7.29534">
        <ele>831.7</ele>
        <time>2022-04-10T09:05:18.823Z</time>
      </trkpt>
      <trkpt lat="48.3987" lon="7.29523">
        <ele>834.4</ele>
        <time>2022-04-10T09:05:28.682Z</time>
      </trkpt>
      <trkpt lat="48.39867" lon="7.29518">
        <ele>835.5</ele>
        <time>2022-04-10T09:05:38.000Z</time>
      </trkpt>
      <trkpt lat="48.39868" lon="7.29502">
        <ele>838.9</ele>
        <time>2022-04-10T09:05:47.658Z</time>
      </trkpt>
      <trkpt lat="48.39865" lon="7.29489">
        <ele>840</ele>
        <time>2022-04-10T09:05:57.077Z</time>
      </trkpt>
      <trkpt lat="48.39859" lon="7.2948">
        <ele>840.9</ele>
        <time>2022-04-10T09:06:07.000Z</time>
      </trkpt>
      <trkpt lat="48.39856" lon="7.29469">
        <ele>841.6</ele>
        <time>2022-04-10T09:06:16.620Z</time>
      </trkpt>
      <trkpt lat="48.3985" lon="7.29457">
        <ele>842.5</ele>
        <time>2022-04-10T09:06:26.101Z</time>
      </trkpt>
      <trkpt lat="48.39849" lon="7.29448">
        <ele>842.7</ele>
        <time>2022-04-10T09:06:35.962Z</time>
      </trkpt>
      <trkpt lat="48.39846" lon="7.2944">
        <ele>843.2</ele>
        <time>2022-04-10T09:06:45.581Z</time>
      </trkpt>
      <trkpt lat="48.39841" lon="7.29429">
        <ele>843.9</ele>
        <time>2022-04-10T09:06:54.923Z</time>
      </trkpt>
      <trkpt lat="48.39835" lon="7.29407">
        <ele>845</ele>
        <time>2022-04-10T09:07:04.000Z</time>
      </trkpt>
      <trkpt lat="48.39832" lon="7.29393">
        <ele>846</ele>
        <time>2022-04-10T09:07:13.623Z</time>
      </trkpt>
      <trkpt lat="48.39827" lon="7.29387">
        <ele>847</ele>
        <time>2022-04-10T09:07:23.058Z</time>
      </trkpt>
      <trkpt lat="48.39823" lon="7.29377">
        <ele>847.6</ele>
        <time>2022-04-10T09:07:32.703Z</time>
      </trkpt>
      <trkpt lat="48.39817" lon="7.2937">
        <ele>848.7</ele>
        <time>2022-04-10T09:07:42.000Z</time>
      </trkpt>
      <trkpt lat="48.3981" lon="7.2936">
        <ele>850.2</ele>
        <time>2022-04-10T09:07:51.979Z</time>
      </trkpt>
      <trkpt lat="48.39807" lon="7.29355">
        <ele>850.8</ele>
        <time>2022-04-10T09:08:01.462Z</time>
      </trkpt>
      <trkpt lat="48.39798" lon="7.29347">
        <ele>852.4</ele>
        <time>2022-04-10T09:08:11.104Z</time>
      </trkpt>
      <trkpt lat="48.39788" lon="7.29336">
        <ele>854.8</ele>
        <time>2022-04-10T09:08:21.101Z</time>
      </trkpt>
      <trkpt lat="48.39783" lon="7.29329">
        <ele>856</ele>
        <time>2022-04-10T09:08:30.442Z</time>
      </trkpt>
      <trkpt lat="48.39775" lon="7.29318">
        <ele>857.9</ele>
        <time>2022-04-10T09:08:39.722Z</time>
      </trkpt>
      <trkpt lat="48.39771" lon="7.29309">
        <ele>858.8</ele>
        <time>2022-04-10T09:08:49.000Z</time>
      </trkpt>
      <trkpt lat="48.39766" lon="7.29298">
        <ele>860.1</ele>
        <time>2022-04-10T09:08:58.441Z</time>
      </trkpt>
      <trkpt lat="48.3976" lon="7.29284">
        <ele>861.9</ele>
        <time>2022-04-10T09:09:08.000Z</time>
      </trkpt>
      <trkpt lat="48.39754" lon="7.29276">
        <ele>863.4</ele>
        <time>2022-04-10T09:09:17.123Z</time>
      </trkpt>
      <trkpt lat="48.39748" lon="7.29259">
        <ele>864.8</ele>
        <time>2022-04-10T09:09:26.999Z</time>
      </trkpt>
      <trkpt lat="48.39743" lon="7.29244">
        <ele>865.5</ele>
        <time>2022-04-10T09:09:36.623Z</time>
      </trkpt>
      <trkpt lat="48.39735" lon="7.29228">
        <ele>866.6</ele>
        <time>2022-04-10T09:09:46.000Z</time>
      </trkpt>
      <trkpt lat="48.3973" lon="7.29209">
        <ele>867.3</ele>
        <time>2022-04-10T09:09:56.022Z</time>
      </trkpt>
      <trkpt lat="48.39726" lon="7.29195">
        <ele>867.7</ele>
        <time>2022-04-10T09:10:05.823Z</time>
      </trkpt>
      <trkpt lat="48.39716" lon="7.29184">
        <ele>869.1</ele>
        <time>2022-04-10T09:10:14.960Z</time>
      </trkpt>
      <trkpt lat="48.39708" lon="7.29166">
        <ele>870.5</ele>
        <time>2022-04-10T09:10:24.077Z</time>
      </trkpt>
      <trkpt lat="48.39704" lon="7.29152">
        <ele>871</ele>
        <time>2022-04-10T09:10:33.281Z</time>
      </trkpt>
      <trkpt lat="48.39701" lon="7.29138">
        <ele>871.3</ele>
        <time>2022-04-10T09:10:42.965Z</time>
      </trkpt>
      <trkpt lat="48.39697" lon="7.29125">
        <ele>872.2</ele>
        <time>2022-04-10T09:10:52.000Z</time>
      </trkpt>
      <trkpt lat="48.39689" lon="7.29107">
        <ele>873.4</ele>
        <time>2022-04-10T09:11:01.646Z</time>
      </trkpt>
      <trkpt lat="48.39682" lon="7.29091">
        <ele>873.9</ele>
        <time>2022-04-10T09:11:11.000Z</time>
      </trkpt>
      <trkpt lat="48.39679" lon="7.29076">
        <ele>874.1</ele>
        <time>2022-04-10T09:11:20.484Z</time>
      </trkpt>
      <trkpt lat="48.39674" lon="7.29063">
        <ele>874.5</ele>
        <time>2022-04-10T09:11:29.778Z</time>
      </trkpt>
      <trkpt lat="48.39671" lon="7.29041">
        <ele>874.2</ele>
        <time>2022-04-10T09:11:39.000Z</time>
      </trkpt>
      <trkpt lat="48.39669" lon="7.29022">
        <ele>873.9</ele>
        <time>2022-04-10T09:11:48.582Z</time>
      </trkpt>
      <trkpt lat="48.39668" lon="7.29002">
        <ele>874</ele>
        <time>2022-04-10T09:11:58.000Z</time>
      </trkpt>
      <trkpt lat="48.39668" lon="7.28987">
        <ele>873.5</ele>
        <time>2022-04-10T09:12:08.000Z</time>
      </trkpt>
      <trkpt lat="48.39665" lon="7.28972">
        <ele>873</ele>
        <time>2022-04-10T09:12:18.000Z</time>
      </trkpt>
      <trkpt lat="48.39663" lon="7.28959">
        <ele>873.4</ele>
        <time>2022-04-10T09:12:27.138Z</time>
      </trkpt>
      <trkpt lat="48.39666" lon="7.28942">
        <ele>874</ele>
        <time>2022-04-10T09:12:37.000Z</time>
      </trkpt>
      <trkpt lat="48.3967" lon="7.28925">
        <ele>874.1</ele>
        <time>2022-04-10T09:12:46.462Z</time>
      </trkpt>
      <trkpt lat="48.39671" lon="7.28906">
        <ele>874.5</ele>
        <time>2022-04-10T09:12:55.664Z</time>
      </trkpt>
      <trkpt lat="48.39671" lon="7.28889">
        <ele>875</ele>
        <time>2022-04-10T09:13:04.979Z</time>
      </trkpt>
      <trkpt lat="48.39671" lon="7.28854">
        <ele>876.3</ele>
        <time>2022-04-10T09:13:14.447Z</time>
      </trkpt>
      <trkpt lat="48.39674" lon="7.28825">
        <ele>877.6</ele>
        <time>2022-04-10T09:13:23.739Z</time>
      </trkpt>
      <trkpt lat="48.39676" lon="7.28826">
        <ele>877.5</ele>
        <time>2022-04-10T09:13:33.000Z</time>
      </trkpt>
      <trkpt lat="48.39669" lon="7.28872">
        <ele>875.6</ele>
        <time>2022-04-10T09:13:43.000Z</time>
      </trkpt>
      <trkpt lat="48.39676" lon="7.28839">
        <ele>876.8</ele>
        <time>2022-04-10T09:13:52.770Z</time>
      </trkpt>
      <trkpt lat="48.39666" lon="7.28801">
        <ele>879.2</ele>
        <time>2022-04-10T09:14:01.905Z</time>
      </trkpt>
      <trkpt lat="48.39664" lon="7.28791">
        <ele>879.5</ele>
        <time>2022-04-10T09:14:12.000Z</time>
      </trkpt>
      <trkpt lat="48.39664" lon="7.28785">
        <ele>879.7</ele>
        <time>2022-04-10T09:14:21.588Z</time>
      </trkpt>
      <trkpt lat="48.39664" lon="7.28772">
        <ele>880.9</ele>
        <time>2022-04-10T09:14:31.000Z</time>
      </trkpt>
      <trkpt lat="48.39664" lon="7.28756">
        <ele>883.1</ele>
        <time>2022-04-10T09:14:40.966Z</time>
      </trkpt>
      <trkpt lat="48.39664" lon="7.28754">
        <ele>883.4</ele>
        <time>2022-04-10T09:14:50.000Z</time>
      </trkpt>
      <trkpt lat="48.39668" lon="7.28757">
        <ele>883</ele>
        <time>2022-04-10T09:15:00.000Z</time>
      </trkpt>
      <trkpt lat="48.39667" lon="7.28755">
        <ele>883.2</ele>
        <time>2022-04-10T09:15:29.000Z</time>
      </trkpt>
      <trkpt lat="48.39663" lon="7.28744">
        <ele>884.8</ele>
        <time>2022-04-10T09:15:39.000Z</time>
      </trkpt>
      <trkpt lat="48.39662" lon="7.28743">
        <ele>884.8</ele>
        <time>2022-04-10T09:16:08.000Z</time>
      </trkpt>
      <trkpt lat="48.39651" lon="7.28737">
        <ele>885.6</ele>
        <time>2022-04-10T09:16:17.027Z</time>
      </trkpt>
      <trkpt lat="48.39634" lon="7.28725">
        <ele>887.1</ele>
        <time>2022-04-10T09:16:26.331Z</time>
      </trkpt>
      <trkpt lat="48.39632" lon="7.28721">
        <ele>887.7</ele>
        <time>2022-04-10T09:16:35.867Z</time>
      </trkpt>
      <trkpt lat="48.39612" lon="7.28718">
        <ele>887.1</ele>
        <time>2022-04-10T09:16:45.000Z</time>
      </trkpt>
      <trkpt lat="48.39611" lon="7.28715">
        <ele>887.7</ele>
        <time>2022-04-10T09:16:54.686Z</time>
      </trkpt>
      <trkpt lat="48.39599" lon="7.28733">
        <ele>882.6</ele>
        <time>2022-04-10T09:17:03.687Z</time>
      </trkpt>
      <trkpt lat="48.39574" lon="7.28721">
        <ele>885.6</ele>
        <time>2022-04-10T09:17:13.000Z</time>
      </trkpt>
      <trkpt lat="48.39565" lon="7.28707">
        <ele>890.5</ele>
        <time>2022-04-10T09:17:22.949Z</time>
      </trkpt>
      <trkpt lat="48.39556" lon="7.28709">
        <ele>891.4</ele>
        <time>2022-04-10T09:17:33.000Z</time>
      </trkpt>
      <trkpt lat="48.39548" lon="7.2872">
        <ele>890.4</ele>
        <time>2022-04-10T09:17:42.588Z</time>
      </trkpt>
      <trkpt lat="48.39533" lon="7.28729">
        <ele>891.1</ele>
        <time>2022-04-10T09:17:52.106Z</time>
      </trkpt>
      <trkpt lat="48.39526" lon="7.28735">
        <ele>890.7</ele>
        <time>2022-04-10T09:18:01.786Z</time>
      </trkpt>
      <trkpt lat="48.39518" lon="7.28743">
        <ele>889.3</ele>
        <time>2022-04-10T09:18:10.986Z</time>
      </trkpt>
      <trkpt lat="48.39501" lon="7.28752">
        <ele>889.5</ele>
        <time>2022-04-10T09:18:21.126Z</time>
      </trkpt>
      <trkpt lat="48.39492" lon="7.28747">
        <ele>891.2</ele>
        <time>2022-04-10T09:18:30.704Z</time>
      </trkpt>
      <trkpt lat="48.3949" lon="7.28745">
        <ele>892</ele>
        <time>2022-04-10T09:18:40.000Z</time>
      </trkpt>
      <trkpt lat="48.39476" lon="7.28735">
        <ele>895.4</ele>
        <time>2022-04-10T09:18:49.629Z</time>
      </trkpt>
      <trkpt lat="48.39476" lon="7.28734">
        <ele>895.7</ele>
        <time>2022-04-10T09:18:58.666Z</time>
      </trkpt>
      <trkpt lat="48.39442" lon="7.28723">
        <ele>899.7</ele>
        <time>2022-04-10T09:19:08.000Z</time>
      </trkpt>
      <trkpt lat="48.39442" lon="7.28725">
        <ele>899.4</ele>
        <time>2022-04-10T09:19:17.525Z</time>
      </trkpt>
      <trkpt lat="48.39438" lon="7.2872">
        <ele>900.3</ele>
        <time>2022-04-10T09:19:26.607Z</time>
      </trkpt>
      <trkpt lat="48.39435" lon="7.28712">
        <ele>902.1</ele>
        <time>2022-04-10T09:19:35.707Z</time>
      </trkpt>
      <trkpt lat="48.39424" lon="7.28699">
        <ele>904.4</ele>
        <time>2022-04-10T09:19:45.085Z</time>
      </trkpt>
      <trkpt lat="48.39422" lon="7.28695">
        <ele>905.2</ele>
        <time>2022-04-10T09:19:54.787Z</time>
      </trkpt>
      <trkpt lat="48.39411" lon="7.28687">
        <ele>906.2</ele>
        <time>2022-04-10T09:20:04.083Z</time>
      </trkpt>
      <trkpt lat="48.39402" lon="7.28678">
        <ele>907.1</ele>
        <time>2022-04-10T09:20:13.104Z</time>
      </trkpt>
      <trkpt lat="48.39395" lon="7.2867">
        <ele>908</ele>
        <time>2022-04-10T09:20:22.928Z</time>
      </trkpt>
      <trkpt lat="48.39386" lon="7.28661">
        <ele>909</ele>
        <time>2022-04-10T09:20:31.985Z</time>
      </trkpt>
      <trkpt lat="48.39371" lon="7.28646">
        <ele>910.4</ele>
        <time>2022-04-10T09:20:42.024Z</time>
      </trkpt>
      <trkpt lat="48.39352" lon="7.28627">
        <ele>911.6</ele>
        <time>2022-04-10T09:20:51.908Z</time>
      </trkpt>
      <trkpt lat="48.39338" lon="7.28613">
        <ele>912.1</ele>
        <time>2022-04-10T09:21:01.000Z</time>
      </trkpt>
      <trkpt lat="48.39337" lon="7.28612">
        <ele>912.3</ele>
        <time>2022-04-10T09:21:10.848Z</time>
      </trkpt>
      <trkpt lat="48.39329" lon="7.28602">
        <ele>913.1</ele>
        <time>2022-04-10T09:21:20.000Z</time>
      </trkpt>
      <trkpt lat="48.39319" lon="7.28586">
        <ele>914.5</ele>
        <time>2022-04-10T09:21:30.009Z</time>
      </trkpt>
      <trkpt lat="48.39299" lon="7.28577">
        <ele>913.4</ele>
        <time>2022-04-10T09:21:40.000Z</time>
      </trkpt>
      <trkpt lat="48.39293" lon="7.28556">
        <ele>917.2</ele>
        <time>2022-04-10T09:21:49.869Z</time>
      </trkpt>
      <trkpt lat="48.39285" lon="7.28544">
        <ele>918.2</ele>
        <time>2022-04-10T09:22:00.000Z</time>
      </trkpt>
      <trkpt lat="48.39275" lon="7.28536">
        <ele>918.2</ele>
        <time>2022-04-10T09:22:09.263Z</time>
      </trkpt>
      <trkpt lat="48.39273" lon="7.2853">
        <ele>919</ele>
        <time>2022-04-10T09:22:18.608Z</time>
      </trkpt>
      <trkpt lat="48.39264" lon="7.28517">
        <ele>919.9</ele>
        <time>2022-04-10T09:22:27.946Z</time>
      </trkpt>
      <trkpt lat="48.39254" lon="7.28509">
        <ele>919.9</ele>
        <time>2022-04-10T09:22:37.000Z</time>
      </trkpt>
      <trkpt lat="48.39242" lon="7.28497">
        <ele>920.6</ele>
        <time>2022-04-10T09:22:46.026Z</time>
      </trkpt>
      <trkpt lat="48.39232" lon="7.28484">
        <ele>921.8</ele>
        <time>2022-04-10T09:22:56.008Z</time>
      </trkpt>
      <trkpt lat="48.39227" lon="7.28476">
        <ele>922.8</ele>
        <time>2022-04-10T09:23:05.607Z</time>
      </trkpt>
      <trkpt lat="48.39215" lon="7.28466">
        <ele>923.1</ele>
        <time>2022-04-10T09:23:15.000Z</time>
      </trkpt>
      <trkpt lat="48.39206" lon="7.28459">
        <ele>923.3</ele>
        <time>2022-04-10T09:23:24.369Z</time>
      </trkpt>
      <trkpt lat="48.39194" lon="7.28449">
        <ele>923.9</ele>
        <time>2022-04-10T09:23:33.467Z</time>
      </trkpt>
      <trkpt lat="48.39181" lon="7.28438">
        <ele>923.6</ele>
        <time>2022-04-10T09:23:42.691Z</time>
      </trkpt>
      <trkpt lat="48.39166" lon="7.28426">
        <ele>923.1</ele>
        <time>2022-04-10T09:23:51.827Z</time>
      </trkpt>
      <trkpt lat="48.39154" lon="7.28415">
        <ele>922.5</ele>
        <time>2022-04-10T09:24:01.106Z</time>
      </trkpt>
      <trkpt lat="48.3915" lon="7.28405">
        <ele>922.5</ele>
        <time>2022-04-10T09:24:10.830Z</time>
      </trkpt>
      <trkpt lat="48.39147" lon="7.28391">
        <ele>923.2</ele>
        <time>2022-04-10T09:24:20.000Z</time>
      </trkpt>
      <trkpt lat="48.39141" lon="7.28377">
        <ele>923.3</ele>
        <time>2022-04-10T09:24:30.000Z</time>
      </trkpt>
      <trkpt lat="48.39149" lon="7.28383">
        <ele>924.4</ele>
        <time>2022-04-10T09:24:39.048Z</time>
      </trkpt>
      <trkpt lat="48.39154" lon="7.28385">
        <ele>925</ele>
        <time>2022-04-10T09:24:49.000Z</time>
      </trkpt>
      <trkpt lat="48.39154" lon="7.28387">
        <ele>925</ele>
        <time>2022-04-10T09:24:58.426Z</time>
      </trkpt>
      <trkpt lat="48.39163" lon="7.28387">
        <ele>926.5</ele>
        <time>2022-04-10T09:25:09.000Z</time>
      </trkpt>
      <trkpt lat="48.39177" lon="7.28385">
        <ele>929.3</ele>
        <time>2022-04-10T09:25:18.649Z</time>
      </trkpt>
      <trkpt lat="48.3918" lon="7.28383">
        <ele>930.1</ele>
        <time>2022-04-10T09:25:28.000Z</time>
      </trkpt>
      <trkpt lat="48.3919" lon="7.28378">
        <ele>932.3</ele>
        <time>2022-04-10T09:25:37.969Z</time>
      </trkpt>
      <trkpt lat="48.39202" lon="7.28391">
        <ele>932.8</ele>
        <time>2022-04-10T09:25:48.107Z</time>
      </trkpt>
      <trkpt lat="48.39214" lon="7.28374">
        <ele>936.4</ele>
        <time>2022-04-10T09:25:57.487Z</time>
      </trkpt>
      <trkpt lat="48.39215" lon="7.28356">
        <ele>938.7</ele>
        <time>2022-04-10T09:26:07.000Z</time>
      </trkpt>
      <trkpt lat="48.39219" lon="7.28346">
        <ele>940.6</ele>
        <time>2022-04-10T09:26:16.767Z</time>
      </trkpt>
      <trkpt lat="48.39223" lon="7.28336">
        <ele>942.8</ele>
        <time>2022-04-10T09:26:27.064Z</time>
      </trkpt>
      <trkpt lat="48.39228" lon="7.28324">
        <ele>944.2</ele>
        <time>2022-04-10T09:26:36.887Z</time>
      </trkpt>
      <trkpt lat="48.39229" lon="7.28323">
        <ele>944.4</ele>
        <time>2022-04-10T09:26:46.046Z</time>
      </trkpt>
      <trkpt lat="48.39235" lon="7.28321">
        <ele>945.2</ele>
        <time>2022-04-10T09:26:56.003Z</time>
      </trkpt>
      <trkpt lat="48.3924" lon="7.28319">
        <ele>946.1</ele>
        <time>2022-04-10T09:27:05.467Z</time>
      </trkpt>
      <trkpt lat="48.39251" lon="7.28318">
        <ele>947.7</ele>
        <time>2022-04-10T09:27:15.088Z</time>
      </trkpt>
      <trkpt lat="48.3926" lon="7.28307">
        <ele>949.3</ele>
        <time>2022-04-10T09:27:24.729Z</time>
      </trkpt>
      <trkpt lat="48.39261" lon="7.28307">
        <ele>949.5</ele>
        <time>2022-04-10T09:27:34.000Z</time>
      </trkpt>
      <trkpt lat="48.39271" lon="7.28297">
        <ele>951.6</ele>
        <time>2022-04-10T09:27:44.000Z</time>
      </trkpt>
      <trkpt lat="48.39281" lon="7.28289">
        <ele>953.6</ele>
        <time>2022-04-10T09:27:54.000Z</time>
      </trkpt>
      <trkpt lat="48.39292" lon="7.28288">
        <ele>955.1</ele>
        <time>2022-04-10T09:28:03.904Z</time>
      </trkpt>
      <trkpt lat="48.39297" lon="7.2828">
        <ele>956.5</ele>
        <time>2022-04-10T09:28:13.547Z</time>
      </trkpt>
      <trkpt lat="48.39299" lon="7.28272">
        <ele>957.6</ele>
        <time>2022-04-10T09:28:23.064Z</time>
      </trkpt>
      <trkpt lat="48.39303" lon="7.28258">
        <ele>959.8</ele>
        <time>2022-04-10T09:28:32.565Z</time>
      </trkpt>
      <trkpt lat="48.393" lon="7.28257">
        <ele>959.2</ele>
        <time>2022-04-10T09:28:45.268Z</time>
      </trkpt>
      <trkpt lat="48.39298" lon="7.28255">
        <ele>959.1</ele>
        <time>2022-04-10T09:28:55.000Z</time>
      </trkpt>
      <trkpt lat="48.393" lon="7.28251">
        <ele>959.8</ele>
        <time>2022-04-10T09:29:05.000Z</time>
      </trkpt>
      <trkpt lat="48.39303" lon="7.28253">
        <ele>960.2</ele>
        <time>2022-04-10T09:29:20.000Z</time>
      </trkpt>
      <trkpt lat="48.39301" lon="7.28253">
        <ele>959.9</ele>
        <time>2022-04-10T09:29:30.000Z</time>
      </trkpt>
      <trkpt lat="48.393" lon="7.28254">
        <ele>959.6</ele>
        <time>2022-04-10T09:29:40.000Z</time>
      </trkpt>
      <trkpt lat="48.393" lon="7.28252">
        <ele>959.9</ele>
        <time>2022-04-10T09:30:25.000Z</time>
      </trkpt>
      <trkpt lat="48.39336" lon="7.28276">
        <ele>962.5</ele>
        <time>2022-04-10T09:30:35.000Z</time>
      </trkpt>
      <trkpt lat="48.39306" lon="7.28245">
        <ele>961.5</ele>
        <time>2022-04-10T09:30:45.000Z</time>
      </trkpt>
      <trkpt lat="48.39305" lon="7.28244">
        <ele>961.4</ele>
        <time>2022-04-10T09:30:55.000Z</time>
      </trkpt>
      <trkpt lat="48.39299" lon="7.28257">
        <ele>959.2</ele>
        <time>2022-04-10T09:31:05.000Z</time>
      </trkpt>
      <trkpt lat="48.39303" lon="7.28257">
        <ele>959.8</ele>
        <time>2022-04-10T09:33:07.000Z</time>
      </trkpt>
      <trkpt lat="48.39311" lon="7.28246">
        <ele>962.1</ele>
        <time>2022-04-10T09:33:17.000Z</time>
      </trkpt>
      <trkpt lat="48.39314" lon="7.28232">
        <ele>963.6</ele>
        <time>2022-04-10T09:33:27.000Z</time>
      </trkpt>
      <trkpt lat="48.3932" lon="7.28216">
        <ele>965.9</ele>
        <time>2022-04-10T09:33:37.000Z</time>
      </trkpt>
      <trkpt lat="48.39327" lon="7.28211">
        <ele>967.4</ele>
        <time>2022-04-10T09:33:47.000Z</time>
      </trkpt>
      <trkpt lat="48.39331" lon="7.28211">
        <ele>968.1</ele>
        <time>2022-04-10T09:33:57.000Z</time>
      </trkpt>
      <trkpt lat="48.39344" lon="7.28219">
        <ele>969.3</ele>
        <time>2022-04-10T09:34:07.132Z</time>
      </trkpt>
      <trkpt lat="48.39351" lon="7.28229">
        <ele>969.2</ele>
        <time>2022-04-10T09:34:17.000Z</time>
      </trkpt>
      <trkpt lat="48.39352" lon="7.28231">
        <ele>969.1</ele>
        <time>2022-04-10T09:34:26.374Z</time>
      </trkpt>
      <trkpt lat="48.39362" lon="7.28238">
        <ele>969.4</ele>
        <time>2022-04-10T09:34:35.971Z</time>
      </trkpt>
      <trkpt lat="48.39366" lon="7.28236">
        <ele>970.1</ele>
        <time>2022-04-10T09:34:45.050Z</time>
      </trkpt>
      <trkpt lat="48.39377" lon="7.28229">
        <ele>972</ele>
        <time>2022-04-10T09:34:54.654Z</time>
      </trkpt>
      <trkpt lat="48.39388" lon="7.28218">
        <ele>974.1</ele>
        <time>2022-04-10T09:35:03.734Z</time>
      </trkpt>
      <trkpt lat="48.39397" lon="7.28202">
        <ele>975.9</ele>
        <time>2022-04-10T09:35:13.347Z</time>
      </trkpt>
      <trkpt lat="48.39405" lon="7.2819">
        <ele>977.5</ele>
        <time>2022-04-10T09:35:22.394Z</time>
      </trkpt>
      <trkpt lat="48.39408" lon="7.28183">
        <ele>978.3</ele>
        <time>2022-04-10T09:35:31.838Z</time>
      </trkpt>
      <trkpt lat="48.39416" lon="7.2817">
        <ele>979.8</ele>
        <time>2022-04-10T09:35:41.000Z</time>
      </trkpt>
      <trkpt lat="48.39428" lon="7.2816">
        <ele>981.5</ele>
        <time>2022-04-10T09:35:50.478Z</time>
      </trkpt>
      <trkpt lat="48.39438" lon="7.28153">
        <ele>983</ele>
        <time>2022-04-10T09:35:59.653Z</time>
      </trkpt>
      <trkpt lat="48.39445" lon="7.28142">
        <ele>984.7</ele>
        <time>2022-04-10T09:36:08.832Z</time>
      </trkpt>
      <trkpt lat="48.39453" lon="7.28123">
        <ele>987.3</ele>
        <time>2022-04-10T09:36:17.973Z</time>
      </trkpt>
      <trkpt lat="48.39457" lon="7.28112">
        <ele>988.9</ele>
        <time>2022-04-10T09:36:27.000Z</time>
      </trkpt>
      <trkpt lat="48.39459" lon="7.28106">
        <ele>989.5</ele>
        <time>2022-04-10T09:36:37.000Z</time>
      </trkpt>
      <trkpt lat="48.39464" lon="7.28095">
        <ele>990.9</ele>
        <time>2022-04-10T09:36:46.113Z</time>
      </trkpt>
      <trkpt lat="48.39472" lon="7.28082">
        <ele>993.1</ele>
        <time>2022-04-10T09:36:55.797Z</time>
      </trkpt>
      <trkpt lat="48.39479" lon="7.28062">
        <ele>995.1</ele>
        <time>2022-04-10T09:37:05.000Z</time>
      </trkpt>
      <trkpt lat="48.39482" lon="7.28046">
        <ele>996.7</ele>
        <time>2022-04-10T09:37:15.000Z</time>
      </trkpt>
      <trkpt lat="48.39483" lon="7.28042">
        <ele>997.1</ele>
        <time>2022-04-10T09:37:24.095Z</time>
      </trkpt>
      <trkpt lat="48.3949" lon="7.28023">
        <ele>998.8</ele>
        <time>2022-04-10T09:37:33.513Z</time>
      </trkpt>
      <trkpt lat="48.39498" lon="7.28008">
        <ele>1000.2</ele>
        <time>2022-04-10T09:37:43.000Z</time>
      </trkpt>
      <trkpt lat="48.39502" lon="7.27999">
        <ele>1001.2</ele>
        <time>2022-04-10T09:37:53.000Z</time>
      </trkpt>
      <trkpt lat="48.395" lon="7.27999">
        <ele>1001.1</ele>
        <time>2022-04-10T09:38:03.000Z</time>
      </trkpt>
      <trkpt lat="48.39488" lon="7.28">
        <ele>1001.4</ele>
        <time>2022-04-10T09:38:13.000Z</time>
      </trkpt>
      <trkpt lat="48.39493" lon="7.28">
        <ele>1001.3</ele>
        <time>2022-04-10T09:38:32.000Z</time>
      </trkpt>
      <trkpt lat="48.39499" lon="7.27998">
        <ele>1001.2</ele>
        <time>2022-04-10T09:38:42.000Z</time>
      </trkpt>
      <trkpt lat="48.39501" lon="7.27996">
        <ele>1001.4</ele>
        <time>2022-04-10T09:38:53.942Z</time>
      </trkpt>
      <trkpt lat="48.39509" lon="7.27976">
        <ele>1003.6</ele>
        <time>2022-04-10T09:39:03.994Z</time>
      </trkpt>
      <trkpt lat="48.39517" lon="7.27961">
        <ele>1005.3</ele>
        <time>2022-04-10T09:39:14.000Z</time>
      </trkpt>
      <trkpt lat="48.39518" lon="7.27959">
        <ele>1005.4</ele>
        <time>2022-04-10T09:39:23.677Z</time>
      </trkpt>
      <trkpt lat="48.39525" lon="7.27945">
        <ele>1007</ele>
        <time>2022-04-10T09:39:32.775Z</time>
      </trkpt>
      <trkpt lat="48.3953" lon="7.27929">
        <ele>1009</ele>
        <time>2022-04-10T09:39:41.874Z</time>
      </trkpt>
      <trkpt lat="48.39532" lon="7.27918">
        <ele>1010.3</ele>
        <time>2022-04-10T09:39:51.475Z</time>
      </trkpt>
      <trkpt lat="48.39535" lon="7.27908">
        <ele>1011.5</ele>
        <time>2022-04-10T09:40:00.516Z</time>
      </trkpt>
      <trkpt lat="48.39542" lon="7.27892">
        <ele>1013.1</ele>
        <time>2022-04-10T09:40:10.112Z</time>
      </trkpt>
      <trkpt lat="48.39546" lon="7.27875">
        <ele>1015</ele>
        <time>2022-04-10T09:40:20.113Z</time>
      </trkpt>
      <trkpt lat="48.39548" lon="7.27861">
        <ele>1016.9</ele>
        <time>2022-04-10T09:40:29.759Z</time>
      </trkpt>
      <trkpt lat="48.39548" lon="7.27857">
        <ele>1017.4</ele>
        <time>2022-04-10T09:40:39.056Z</time>
      </trkpt>
      <trkpt lat="48.39552" lon="7.27839">
        <ele>1019.6</ele>
        <time>2022-04-10T09:40:48.954Z</time>
      </trkpt>
      <trkpt lat="48.39556" lon="7.2782">
        <ele>1021.3</ele>
        <time>2022-04-10T09:40:58.432Z</time>
      </trkpt>
      <trkpt lat="48.39559" lon="7.2781">
        <ele>1021.6</ele>
        <time>2022-04-10T09:41:08.000Z</time>
      </trkpt>
      <trkpt lat="48.39557" lon="7.27814">
        <ele>1021.7</ele>
        <time>2022-04-10T09:41:30.000Z</time>
      </trkpt>
      <trkpt lat="48.39553" lon="7.27821">
        <ele>1021.7</ele>
        <time>2022-04-10T09:41:40.000Z</time>
      </trkpt>
      <trkpt lat="48.39556" lon="7.27815">
        <ele>1021.9</ele>
        <time>2022-04-10T09:42:39.000Z</time>
      </trkpt>
      <trkpt lat="48.3956" lon="7.27808">
        <ele>1021.5</ele>
        <time>2022-04-10T09:42:49.000Z</time>
      </trkpt>
      <trkpt lat="48.3956" lon="7.27807">
        <ele>1021.8</ele>
        <time>2022-04-10T09:43:01.000Z</time>
      </trkpt>
      <trkpt lat="48.39552" lon="7.27802">
        <ele>1024</ele>
        <time>2022-04-10T09:43:10.472Z</time>
      </trkpt>
      <trkpt lat="48.39552" lon="7.278">
        <ele>1024.3</ele>
        <time>2022-04-10T09:43:27.000Z</time>
      </trkpt>
      <trkpt lat="48.3955" lon="7.27774">
        <ele>1028</ele>
        <time>2022-04-10T09:43:36.497Z</time>
      </trkpt>
      <trkpt lat="48.39551" lon="7.2777">
        <ele>1028.4</ele>
        <time>2022-04-10T09:43:45.718Z</time>
      </trkpt>
      <trkpt lat="48.39552" lon="7.27753">
        <ele>1030.1</ele>
        <time>2022-04-10T09:43:55.030Z</time>
      </trkpt>
      <trkpt lat="48.39552" lon="7.2775">
        <ele>1030.5</ele>
        <time>2022-04-10T09:44:05.000Z</time>
      </trkpt>
      <trkpt lat="48.39549" lon="7.27736">
        <ele>1032.5</ele>
        <time>2022-04-10T09:44:14.354Z</time>
      </trkpt>
      <trkpt lat="48.39545" lon="7.27718">
        <ele>1034.8</ele>
        <time>2022-04-10T09:44:23.936Z</time>
      </trkpt>
      <trkpt lat="48.39543" lon="7.27705">
        <ele>1036</ele>
        <time>2022-04-10T09:44:33.391Z</time>
      </trkpt>
      <trkpt lat="48.39542" lon="7.277">
        <ele>1036.6</ele>
        <time>2022-04-10T09:44:42.975Z</time>
      </trkpt>
      <trkpt lat="48.39543" lon="7.27681">
        <ele>1038</ele>
        <time>2022-04-10T09:44:52.000Z</time>
      </trkpt>
      <trkpt lat="48.39543" lon="7.27667">
        <ele>1039.4</ele>
        <time>2022-04-10T09:45:01.735Z</time>
      </trkpt>
      <trkpt lat="48.39541" lon="7.27659">
        <ele>1040.3</ele>
        <time>2022-04-10T09:45:11.000Z</time>
      </trkpt>
      <trkpt lat="48.39536" lon="7.27646">
        <ele>1042.2</ele>
        <time>2022-04-10T09:45:20.075Z</time>
      </trkpt>
      <trkpt lat="48.39535" lon="7.27628">
        <ele>1044.2</ele>
        <time>2022-04-10T09:45:30.000Z</time>
      </trkpt>
      <trkpt lat="48.39531" lon="7.2761">
        <ele>1046.7</ele>
        <time>2022-04-10T09:45:40.000Z</time>
      </trkpt>
      <trkpt lat="48.3953" lon="7.27606">
        <ele>1047.1</ele>
        <time>2022-04-10T09:45:50.000Z</time>
      </trkpt>
      <trkpt lat="48.39529" lon="7.27594">
        <ele>1048.7</ele>
        <time>2022-04-10T09:46:00.000Z</time>
      </trkpt>
      <trkpt lat="48.39528" lon="7.27577">
        <ele>1050.6</ele>
        <time>2022-04-10T09:46:10.000Z</time>
      </trkpt>
      <trkpt lat="48.39527" lon="7.27573">
        <ele>1051.2</ele>
        <time>2022-04-10T09:46:19.816Z</time>
      </trkpt>
      <trkpt lat="48.39525" lon="7.2756">
        <ele>1052.9</ele>
        <time>2022-04-10T09:46:29.633Z</time>
      </trkpt>
      <trkpt lat="48.39522" lon="7.27543">
        <ele>1054.6</ele>
        <time>2022-04-10T09:46:39.000Z</time>
      </trkpt>
      <trkpt lat="48.39518" lon="7.27533">
        <ele>1055.9</ele>
        <time>2022-04-10T09:46:49.000Z</time>
      </trkpt>
      <trkpt lat="48.39519" lon="7.27531">
        <ele>1055.9</ele>
        <time>2022-04-10T09:46:58.693Z</time>
      </trkpt>
      <trkpt lat="48.39522" lon="7.2753">
        <ele>1055.7</ele>
        <time>2022-04-10T09:47:08.000Z</time>
      </trkpt>
      <trkpt lat="48.39528" lon="7.27501">
        <ele>1057</ele>
        <time>2022-04-10T09:47:17.114Z</time>
      </trkpt>
      <trkpt lat="48.3953" lon="7.27493">
        <ele>1057.2</ele>
        <time>2022-04-10T09:47:27.000Z</time>
      </trkpt>
      <trkpt lat="48.39531" lon="7.27481">
        <ele>1057.9</ele>
        <time>2022-04-10T09:47:36.054Z</time>
      </trkpt>
      <trkpt lat="48.39532" lon="7.27475">
        <ele>1058.3</ele>
        <time>2022-04-10T09:47:45.576Z</time>
      </trkpt>
      <trkpt lat="48.39532" lon="7.27458">
        <ele>1059.4</ele>
        <time>2022-04-10T09:47:55.000Z</time>
      </trkpt>
      <trkpt lat="48.39532" lon="7.27455">
        <ele>1059.6</ele>
        <time>2022-04-10T09:48:05.496Z</time>
      </trkpt>
      <trkpt lat="48.39531" lon="7.2744">
        <ele>1060.9</ele>
        <time>2022-04-10T09:48:15.000Z</time>
      </trkpt>
      <trkpt lat="48.39531" lon="7.27437">
        <ele>1061.1</ele>
        <time>2022-04-10T09:48:25.672Z</time>
      </trkpt>
      <trkpt lat="48.39529" lon="7.27422">
        <ele>1062.4</ele>
        <time>2022-04-10T09:48:35.015Z</time>
      </trkpt>
      <trkpt lat="48.3953" lon="7.27405">
        <ele>1063.5</ele>
        <time>2022-04-10T09:48:44.514Z</time>
      </trkpt>
      <trkpt lat="48.3953" lon="7.27398">
        <ele>1064</ele>
        <time>2022-04-10T09:48:57.000Z</time>
      </trkpt>
      <trkpt lat="48.39529" lon="7.27385">
        <ele>1065.2</ele>
        <time>2022-04-10T09:49:06.715Z</time>
      </trkpt>
      <trkpt lat="48.39518" lon="7.27373">
        <ele>1067.6</ele>
        <time>2022-04-10T09:49:15.795Z</time>
      </trkpt>
      <trkpt lat="48.39506" lon="7.27363">
        <ele>1070</ele>
        <time>2022-04-10T09:49:25.393Z</time>
      </trkpt>
      <trkpt lat="48.39496" lon="7.27354">
        <ele>1072</ele>
        <time>2022-04-10T09:49:35.000Z</time>
      </trkpt>
      <trkpt lat="48.39495" lon="7.27353">
        <ele>1072.2</ele>
        <time>2022-04-10T09:49:45.000Z</time>
      </trkpt>
      <trkpt lat="48.39483" lon="7.27348">
        <ele>1073.9</ele>
        <time>2022-04-10T09:49:54.997Z</time>
      </trkpt>
      <trkpt lat="48.39471" lon="7.27343">
        <ele>1075.5</ele>
        <time>2022-04-10T09:50:04.000Z</time>
      </trkpt>
      <trkpt lat="48.3947" lon="7.27342">
        <ele>1075.7</ele>
        <time>2022-04-10T09:50:28.000Z</time>
      </trkpt>
      <trkpt lat="48.39469" lon="7.27327">
        <ele>1076.9</ele>
        <time>2022-04-10T09:50:37.116Z</time>
      </trkpt>
      <trkpt lat="48.39463" lon="7.27308">
        <ele>1078.8</ele>
        <time>2022-04-10T09:50:47.000Z</time>
      </trkpt>
      <trkpt lat="48.39461" lon="7.27291">
        <ele>1080.1</ele>
        <time>2022-04-10T09:50:56.193Z</time>
      </trkpt>
      <trkpt lat="48.39459" lon="7.27268">
        <ele>1081.3</ele>
        <time>2022-04-10T09:51:05.735Z</time>
      </trkpt>
      <trkpt lat="48.39456" lon="7.27248">
        <ele>1082.3</ele>
        <time>2022-04-10T09:51:15.135Z</time>
      </trkpt>
      <trkpt lat="48.39455" lon="7.27225">
        <ele>1083.5</ele>
        <time>2022-04-10T09:51:24.517Z</time>
      </trkpt>
      <trkpt lat="48.39456" lon="7.27216">
        <ele>1084.1</ele>
        <time>2022-04-10T09:51:34.074Z</time>
      </trkpt>
      <trkpt lat="48.39453" lon="7.27183">
        <ele>1086.5</ele>
        <time>2022-04-10T09:51:43.737Z</time>
      </trkpt>
      <trkpt lat="48.39453" lon="7.27171">
        <ele>1087.4</ele>
        <time>2022-04-10T09:51:53.000Z</time>
      </trkpt>
      <trkpt lat="48.39452" lon="7.27153">
        <ele>1088.2</ele>
        <time>2022-04-10T09:52:02.836Z</time>
      </trkpt>
      <trkpt lat="48.39453" lon="7.27136">
        <ele>1088.8</ele>
        <time>2022-04-10T09:52:11.914Z</time>
      </trkpt>
      <trkpt lat="48.39451" lon="7.27118">
        <ele>1089.5</ele>
        <time>2022-04-10T09:52:21.000Z</time>
      </trkpt>
      <trkpt lat="48.39452" lon="7.27098">
        <ele>1089.9</ele>
        <time>2022-04-10T09:52:30.674Z</time>
      </trkpt>
      <trkpt lat="48.3945" lon="7.27082">
        <ele>1090</ele>
        <time>2022-04-10T09:52:39.735Z</time>
      </trkpt>
      <trkpt lat="48.3945" lon="7.27055">
        <ele>1090</ele>
        <time>2022-04-10T09:52:49.115Z</time>
      </trkpt>
      <trkpt lat="48.3945" lon="7.2704">
        <ele>1090.5</ele>
        <time>2022-04-10T09:52:58.699Z</time>
      </trkpt>
      <trkpt lat="48.39451" lon="7.27026">
        <ele>1091</ele>
        <time>2022-04-10T09:53:07.795Z</time>
      </trkpt>
      <trkpt lat="48.3945" lon="7.27019">
        <ele>1091</ele>
        <time>2022-04-10T09:53:17.937Z</time>
      </trkpt>
      <trkpt lat="48.39449" lon="7.26994">
        <ele>1091</ele>
        <time>2022-04-10T09:53:28.097Z</time>
      </trkpt>
      <trkpt lat="48.39446" lon="7.26965">
        <ele>1091</ele>
        <time>2022-04-10T09:53:37.792Z</time>
      </trkpt>
      <trkpt lat="48.39452" lon="7.26944">
        <ele>1091</ele>
        <time>2022-04-10T09:53:47.000Z</time>
      </trkpt>
      <trkpt lat="48.39459" lon="7.26936">
        <ele>1091</ele>
        <time>2022-04-10T09:53:56.031Z</time>
      </trkpt>
      <trkpt lat="48.39468" lon="7.26921">
        <ele>1091</ele>
        <time>2022-04-10T09:54:05.975Z</time>
      </trkpt>
      <trkpt lat="48.39481" lon="7.26918">
        <ele>1091</ele>
        <time>2022-04-10T09:54:15.874Z</time>
      </trkpt>
      <trkpt lat="48.39489" lon="7.2691">
        <ele>1091</ele>
        <time>2022-04-10T09:54:25.138Z</time>
      </trkpt>
      <trkpt lat="48.39496" lon="7.26901">
        <ele>1091</ele>
        <time>2022-04-10T09:54:35.000Z</time>
      </trkpt>
      <trkpt lat="48.39504" lon="7.26895">
        <ele>1091</ele>
        <time>2022-04-10T09:54:44.576Z</time>
      </trkpt>
      <trkpt lat="48.39514" lon="7.26886">
        <ele>1091</ele>
        <time>2022-04-10T09:54:53.798Z</time>
      </trkpt>
      <trkpt lat="48.39526" lon="7.26875">
        <ele>1091</ele>
        <time>2022-04-10T09:55:03.015Z</time>
      </trkpt>
      <trkpt lat="48.39536" lon="7.26863">
        <ele>1091</ele>
        <time>2022-04-10T09:55:12.857Z</time>
      </trkpt>
      <trkpt lat="48.39549" lon="7.26854">
        <ele>1091</ele>
        <time>2022-04-10T09:55:23.054Z</time>
      </trkpt>
      <trkpt lat="48.3956" lon="7.26843">
        <ele>1091</ele>
        <time>2022-04-10T09:55:32.594Z</time>
      </trkpt>
      <trkpt lat="48.39569" lon="7.26834">
        <ele>1091</ele>
        <time>2022-04-10T09:55:41.715Z</time>
      </trkpt>
      <trkpt lat="48.3958" lon="7.26825">
        <ele>1090.7</ele>
        <time>2022-04-10T09:55:50.817Z</time>
      </trkpt>
      <trkpt lat="48.3959" lon="7.26815">
        <ele>1090.1</ele>
        <time>2022-04-10T09:56:00.413Z</time>
      </trkpt>
      <trkpt lat="48.39602" lon="7.26801">
        <ele>1089.3</ele>
        <time>2022-04-10T09:56:09.476Z</time>
      </trkpt>
      <trkpt lat="48.39608" lon="7.26789">
        <ele>1089</ele>
        <time>2022-04-10T09:56:18.617Z</time>
      </trkpt>
      <trkpt lat="48.39616" lon="7.26781">
        <ele>1089</ele>
        <time>2022-04-10T09:56:27.636Z</time>
      </trkpt>
      <trkpt lat="48.39626" lon="7.26775">
        <ele>1088.9</ele>
        <time>2022-04-10T09:56:37.000Z</time>
      </trkpt>
      <trkpt lat="48.39641" lon="7.26763">
        <ele>1088.4</ele>
        <time>2022-04-10T09:56:46.654Z</time>
      </trkpt>
      <trkpt lat="48.39653" lon="7.26755">
        <ele>1088.1</ele>
        <time>2022-04-10T09:56:56.054Z</time>
      </trkpt>
      <trkpt lat="48.39665" lon="7.26743">
        <ele>1088</ele>
        <time>2022-04-10T09:57:06.000Z</time>
      </trkpt>
      <trkpt lat="48.39677" lon="7.26732">
        <ele>1087.6</ele>
        <time>2022-04-10T09:57:15.532Z</time>
      </trkpt>
      <trkpt lat="48.39682" lon="7.26726">
        <ele>1087.5</ele>
        <time>2022-04-10T09:57:25.034Z</time>
      </trkpt>
      <trkpt lat="48.39698" lon="7.26717">
        <ele>1086.9</ele>
        <time>2022-04-10T09:57:34.852Z</time>
      </trkpt>
      <trkpt lat="48.39709" lon="7.26708">
        <ele>1086.5</ele>
        <time>2022-04-10T09:57:44.052Z</time>
      </trkpt>
      <trkpt lat="48.39718" lon="7.267">
        <ele>1086.2</ele>
        <time>2022-04-10T09:57:53.453Z</time>
      </trkpt>
      <trkpt lat="48.39723" lon="7.26695">
        <ele>1086</ele>
        <time>2022-04-10T09:58:02.995Z</time>
      </trkpt>
      <trkpt lat="48.3973" lon="7.26678">
        <ele>1085.7</ele>
        <time>2022-04-10T09:58:12.000Z</time>
      </trkpt>
      <trkpt lat="48.39733" lon="7.26659">
        <ele>1085.6</ele>
        <time>2022-04-10T09:58:21.555Z</time>
      </trkpt>
      <trkpt lat="48.39738" lon="7.26641">
        <ele>1085.4</ele>
        <time>2022-04-10T09:58:31.095Z</time>
      </trkpt>
      <trkpt lat="48.39749" lon="7.26634">
        <ele>1085</ele>
        <time>2022-04-10T09:58:41.014Z</time>
      </trkpt>
      <trkpt lat="48.39761" lon="7.2663">
        <ele>1084.6</ele>
        <time>2022-04-10T09:58:50.095Z</time>
      </trkpt>
      <trkpt lat="48.39772" lon="7.26621">
        <ele>1084.2</ele>
        <time>2022-04-10T09:58:59.656Z</time>
      </trkpt>
      <trkpt lat="48.39781" lon="7.26617">
        <ele>1083.9</ele>
        <time>2022-04-10T09:59:09.000Z</time>
      </trkpt>
      <trkpt lat="48.39795" lon="7.26606">
        <ele>1083.4</ele>
        <time>2022-04-10T09:59:18.555Z</time>
      </trkpt>
      <trkpt lat="48.39806" lon="7.26599">
        <ele>1083</ele>
        <time>2022-04-10T09:59:27.914Z</time>
      </trkpt>
      <trkpt lat="48.39812" lon="7.26596">
        <ele>1083</ele>
        <time>2022-04-10T09:59:37.000Z</time>
      </trkpt>
      <trkpt lat="48.39815" lon="7.26596">
        <ele>1083</ele>
        <time>2022-04-10T09:59:46.697Z</time>
      </trkpt>
      <trkpt lat="48.39819" lon="7.26589">
        <ele>1083</ele>
        <time>2022-04-10T09:59:56.000Z</time>
      </trkpt>
      <trkpt lat="48.39828" lon="7.26581">
        <ele>1083</ele>
        <time>2022-04-10T10:00:05.755Z</time>
      </trkpt>
      <trkpt lat="48.39846" lon="7.26576">
        <ele>1082.5</ele>
        <time>2022-04-10T10:00:14.978Z</time>
      </trkpt>
      <trkpt lat="48.39847" lon="7.26565">
        <ele>1082.5</ele>
        <time>2022-04-10T10:00:24.000Z</time>
      </trkpt>
      <trkpt lat="48.39859" lon="7.26553">
        <ele>1082.1</ele>
        <time>2022-04-10T10:00:33.017Z</time>
      </trkpt>
      <trkpt lat="48.39859" lon="7.26557">
        <ele>1082.1</ele>
        <time>2022-04-10T10:00:42.778Z</time>
      </trkpt>
      <trkpt lat="48.39864" lon="7.2655">
        <ele>1082</ele>
        <time>2022-04-10T10:00:52.000Z</time>
      </trkpt>
      <trkpt lat="48.39876" lon="7.26541">
        <ele>1081.7</ele>
        <time>2022-04-10T10:01:01.573Z</time>
      </trkpt>
      <trkpt lat="48.39883" lon="7.26536">
        <ele>1081.4</ele>
        <time>2022-04-10T10:01:11.000Z</time>
      </trkpt>
      <trkpt lat="48.39895" lon="7.26523">
        <ele>1081</ele>
        <time>2022-04-10T10:01:20.634Z</time>
      </trkpt>
      <trkpt lat="48.39899" lon="7.26521">
        <ele>1081</ele>
        <time>2022-04-10T10:01:29.714Z</time>
      </trkpt>
      <trkpt lat="48.39908" lon="7.26512">
        <ele>1081</ele>
        <time>2022-04-10T10:01:38.895Z</time>
      </trkpt>
      <trkpt lat="48.39916" lon="7.26506">
        <ele>1081</ele>
        <time>2022-04-10T10:01:48.000Z</time>
      </trkpt>
      <trkpt lat="48.39931" lon="7.26498">
        <ele>1080.5</ele>
        <time>2022-04-10T10:01:57.815Z</time>
      </trkpt>
      <trkpt lat="48.39937" lon="7.26495">
        <ele>1080.3</ele>
        <time>2022-04-10T10:02:06.854Z</time>
      </trkpt>
      <trkpt lat="48.39938" lon="7.26494">
        <ele>1080.2</ele>
        <time>2022-04-10T10:02:16.000Z</time>
      </trkpt>
      <trkpt lat="48.39948" lon="7.26503">
        <ele>1079.9</ele>
        <time>2022-04-10T10:02:25.834Z</time>
      </trkpt>
      <trkpt lat="48.39954" lon="7.26516">
        <ele>1079.9</ele>
        <time>2022-04-10T10:02:34.856Z</time>
      </trkpt>
      <trkpt lat="48.39961" lon="7.26534">
        <ele>1080</ele>
        <time>2022-04-10T10:02:44.453Z</time>
      </trkpt>
      <trkpt lat="48.39969" lon="7.26553">
        <ele>1080</ele>
        <time>2022-04-10T10:02:53.655Z</time>
      </trkpt>
      <trkpt lat="48.39976" lon="7.26572">
        <ele>1079.3</ele>
        <time>2022-04-10T10:03:03.000Z</time>
      </trkpt>
      <trkpt lat="48.39985" lon="7.26586">
        <ele>1078.5</ele>
        <time>2022-04-10T10:03:12.754Z</time>
      </trkpt>
      <trkpt lat="48.39993" lon="7.26601">
        <ele>1077.8</ele>
        <time>2022-04-10T10:03:21.952Z</time>
      </trkpt>
      <trkpt lat="48.39998" lon="7.26622">
        <ele>1077.1</ele>
        <time>2022-04-10T10:03:31.957Z</time>
      </trkpt>
      <trkpt lat="48.40002" lon="7.26639">
        <ele>1076.8</ele>
        <time>2022-04-10T10:03:40.997Z</time>
      </trkpt>
      <trkpt lat="48.40007" lon="7.26653">
        <ele>1075.9</ele>
        <time>2022-04-10T10:03:50.075Z</time>
      </trkpt>
      <trkpt lat="48.4001" lon="7.26664">
        <ele>1075.4</ele>
        <time>2022-04-10T10:03:59.990Z</time>
      </trkpt>
      <trkpt lat="48.40008" lon="7.26669">
        <ele>1075.3</ele>
        <time>2022-04-10T10:04:09.157Z</time>
      </trkpt>
      <trkpt lat="48.40013" lon="7.26668">
        <ele>1075</ele>
        <time>2022-04-10T10:04:18.882Z</time>
      </trkpt>
      <trkpt lat="48.40018" lon="7.26691">
        <ele>1073.8</ele>
        <time>2022-04-10T10:04:28.524Z</time>
      </trkpt>
      <trkpt lat="48.40017" lon="7.26712">
        <ele>1073.5</ele>
        <time>2022-04-10T10:04:37.900Z</time>
      </trkpt>
      <trkpt lat="48.40008" lon="7.26721">
        <ele>1073.7</ele>
        <time>2022-04-10T10:04:47.000Z</time>
      </trkpt>
      <trkpt lat="48.40001" lon="7.26734">
        <ele>1073.9</ele>
        <time>2022-04-10T10:04:56.683Z</time>
      </trkpt>
      <trkpt lat="48.4" lon="7.26738">
        <ele>1074</ele>
        <time>2022-04-10T10:05:05.781Z</time>
      </trkpt>
      <trkpt lat="48.39995" lon="7.26747">
        <ele>1074.2</ele>
        <time>2022-04-10T10:05:14.880Z</time>
      </trkpt>
      <trkpt lat="48.39995" lon="7.26753">
        <ele>1074.1</ele>
        <time>2022-04-10T10:05:23.999Z</time>
      </trkpt>
      <trkpt lat="48.39986" lon="7.26772">
        <ele>1073.7</ele>
        <time>2022-04-10T10:05:33.481Z</time>
      </trkpt>
      <trkpt lat="48.39976" lon="7.26789">
        <ele>1073.9</ele>
        <time>2022-04-10T10:05:42.762Z</time>
      </trkpt>
      <trkpt lat="48.39973" lon="7.26798">
        <ele>1074</ele>
        <time>2022-04-10T10:05:52.000Z</time>
      </trkpt>
      <trkpt lat="48.39967" lon="7.26815">
        <ele>1073.7</ele>
        <time>2022-04-10T10:06:01.803Z</time>
      </trkpt>
      <trkpt lat="48.39968" lon="7.26821">
        <ele>1073.4</ele>
        <time>2022-04-10T10:06:11.000Z</time>
      </trkpt>
      <trkpt lat="48.39975" lon="7.26842">
        <ele>1073</ele>
        <time>2022-04-10T10:06:21.000Z</time>
      </trkpt>
      <trkpt lat="48.39981" lon="7.26859">
        <ele>1073</ele>
        <time>2022-04-10T10:06:30.080Z</time>
      </trkpt>
      <trkpt lat="48.39987" lon="7.26877">
        <ele>1072.1</ele>
        <time>2022-04-10T10:06:39.882Z</time>
      </trkpt>
      <trkpt lat="48.39994" lon="7.26895">
        <ele>1071.6</ele>
        <time>2022-04-10T10:06:49.000Z</time>
      </trkpt>
      <trkpt lat="48.39995" lon="7.26898">
        <ele>1071.5</ele>
        <time>2022-04-10T10:06:58.356Z</time>
      </trkpt>
      <trkpt lat="48.40007" lon="7.2692">
        <ele>1071.3</ele>
        <time>2022-04-10T10:07:07.802Z</time>
      </trkpt>
      <trkpt lat="48.4001" lon="7.2693">
        <ele>1071.3</ele>
        <time>2022-04-10T10:07:17.000Z</time>
      </trkpt>
      <trkpt lat="48.40011" lon="7.26948">
        <ele>1070.6</ele>
        <time>2022-04-10T10:07:26.122Z</time>
      </trkpt>
      <trkpt lat="48.40013" lon="7.26966">
        <ele>1070.2</ele>
        <time>2022-04-10T10:07:35.840Z</time>
      </trkpt>
      <trkpt lat="48.40018" lon="7.26979">
        <ele>1069.7</ele>
        <time>2022-04-10T10:07:45.080Z</time>
      </trkpt>
      <trkpt lat="48.40026" lon="7.2699">
        <ele>1069.5</ele>
        <time>2022-04-10T10:07:54.822Z</time>
      </trkpt>
      <trkpt lat="48.40033" lon="7.26998">
        <ele>1069.7</ele>
        <time>2022-04-10T10:08:03.884Z</time>
      </trkpt>
      <trkpt lat="48.40045" lon="7.27007">
        <ele>1070.3</ele>
        <time>2022-04-10T10:08:13.000Z</time>
      </trkpt>
      <trkpt lat="48.40056" lon="7.27022">
        <ele>1070.5</ele>
        <time>2022-04-10T10:08:22.961Z</time>
      </trkpt>
      <trkpt lat="48.4006" lon="7.27035">
        <ele>1069.8</ele>
        <time>2022-04-10T10:08:32.000Z</time>
      </trkpt>
      <trkpt lat="48.40068" lon="7.27061">
        <ele>1068.5</ele>
        <time>2022-04-10T10:08:41.501Z</time>
      </trkpt>
      <trkpt lat="48.4007" lon="7.2707">
        <ele>1068.2</ele>
        <time>2022-04-10T10:08:50.720Z</time>
      </trkpt>
      <trkpt lat="48.40077" lon="7.27092">
        <ele>1067.6</ele>
        <time>2022-04-10T10:08:59.838Z</time>
      </trkpt>
      <trkpt lat="48.40077" lon="7.27118">
        <ele>1066.1</ele>
        <time>2022-04-10T10:09:09.000Z</time>
      </trkpt>
      <trkpt lat="48.40078" lon="7.27128">
        <ele>1065.9</ele>
        <time>2022-04-10T10:09:18.479Z</time>
      </trkpt>
      <trkpt lat="48.40086" lon="7.27146">
        <ele>1065.8</ele>
        <time>2022-04-10T10:09:27.903Z</time>
      </trkpt>
      <trkpt lat="48.40091" lon="7.27163">
        <ele>1065.1</ele>
        <time>2022-04-10T10:09:36.981Z</time>
      </trkpt>
      <trkpt lat="48.401" lon="7.27179">
        <ele>1064.9</ele>
        <time>2022-04-10T10:09:46.741Z</time>
      </trkpt>
      <trkpt lat="48.40107" lon="7.27192">
        <ele>1064.8</ele>
        <time>2022-04-10T10:09:55.883Z</time>
      </trkpt>
      <trkpt lat="48.40115" lon="7.27208">
        <ele>1064.3</ele>
        <time>2022-04-10T10:10:06.001Z</time>
      </trkpt>
      <trkpt lat="48.40121" lon="7.27223">
        <ele>1063.7</ele>
        <time>2022-04-10T10:10:15.806Z</time>
      </trkpt>
      <trkpt lat="48.40129" lon="7.27237">
        <ele>1063.3</ele>
        <time>2022-04-10T10:10:25.000Z</time>
      </trkpt>
      <trkpt lat="48.4014" lon="7.27255">
        <ele>1062.7</ele>
        <time>2022-04-10T10:10:35.000Z</time>
      </trkpt>
      <trkpt lat="48.40148" lon="7.27268">
        <ele>1062.4</ele>
        <time>2022-04-10T10:10:44.583Z</time>
      </trkpt>
      <trkpt lat="48.40154" lon="7.27276">
        <ele>1062.2</ele>
        <time>2022-04-10T10:10:53.763Z</time>
      </trkpt>
      <trkpt lat="48.40164" lon="7.27298">
        <ele>1061.3</ele>
        <time>2022-04-10T10:11:02.902Z</time>
      </trkpt>
      <trkpt lat="48.40169" lon="7.27303">
        <ele>1061.2</ele>
        <time>2022-04-10T10:11:12.102Z</time>
      </trkpt>
      <trkpt lat="48.40179" lon="7.27311">
        <ele>1060.9</ele>
        <time>2022-04-10T10:11:21.824Z</time>
      </trkpt>
      <trkpt lat="48.40189" lon="7.2732">
        <ele>1060.7</ele>
        <time>2022-04-10T10:11:30.985Z</time>
      </trkpt>
      <trkpt lat="48.40204" lon="7.27332">
        <ele>1060.4</ele>
        <time>2022-04-10T10:11:40.000Z</time>
      </trkpt>
      <trkpt lat="48.40216" lon="7.27341">
        <ele>1060.2</ele>
        <time>2022-04-10T10:11:49.122Z</time>
      </trkpt>
      <trkpt lat="48.40231" lon="7.27349">
        <ele>1059.8</ele>
        <time>2022-04-10T10:11:58.884Z</time>
      </trkpt>
      <trkpt lat="48.40236" lon="7.27354">
        <ele>1059.5</ele>
        <time>2022-04-10T10:12:08.083Z</time>
      </trkpt>
      <trkpt lat="48.40255" lon="7.27357">
        <ele>1059.3</ele>
        <time>2022-04-10T10:12:17.564Z</time>
      </trkpt>
      <trkpt lat="48.40258" lon="7.27356">
        <ele>1059.4</ele>
        <time>2022-04-10T10:12:26.644Z</time>
      </trkpt>
      <trkpt lat="48.40271" lon="7.27355">
        <ele>1059.6</ele>
        <time>2022-04-10T10:12:36.000Z</time>
      </trkpt>
      <trkpt lat="48.40284" lon="7.2735">
        <ele>1060.2</ele>
        <time>2022-04-10T10:12:45.022Z</time>
      </trkpt>
      <trkpt lat="48.40297" lon="7.2735">
        <ele>1060.2</ele>
        <time>2022-04-10T10:12:55.040Z</time>
      </trkpt>
      <trkpt lat="48.4031" lon="7.27352">
        <ele>1060</ele>
        <time>2022-04-10T10:13:04.463Z</time>
      </trkpt>
      <trkpt lat="48.40325" lon="7.27354">
        <ele>1059.6</ele>
        <time>2022-04-10T10:13:13.905Z</time>
      </trkpt>
      <trkpt lat="48.40342" lon="7.27367">
        <ele>1058.1</ele>
        <time>2022-04-10T10:13:23.000Z</time>
      </trkpt>
      <trkpt lat="48.40355" lon="7.27379">
        <ele>1056.8</ele>
        <time>2022-04-10T10:13:32.039Z</time>
      </trkpt>
      <trkpt lat="48.4037" lon="7.27385">
        <ele>1056</ele>
        <time>2022-04-10T10:13:41.520Z</time>
      </trkpt>
      <trkpt lat="48.40382" lon="7.27386">
        <ele>1055.5</ele>
        <time>2022-04-10T10:13:51.000Z</time>
      </trkpt>
      <trkpt lat="48.40389" lon="7.27389">
        <ele>1055</ele>
        <time>2022-04-10T10:14:00.563Z</time>
      </trkpt>
      <trkpt lat="48.40402" lon="7.27394">
        <ele>1053.8</ele>
        <time>2022-04-10T10:14:09.985Z</time>
      </trkpt>
      <trkpt lat="48.40415" lon="7.27397">
        <ele>1052.9</ele>
        <time>2022-04-10T10:14:19.747Z</time>
      </trkpt>
      <trkpt lat="48.40432" lon="7.27399">
        <ele>1052</ele>
        <time>2022-04-10T10:14:29.000Z</time>
      </trkpt>
      <trkpt lat="48.40441" lon="7.274">
        <ele>1051.5</ele>
        <time>2022-04-10T10:14:38.923Z</time>
      </trkpt>
      <trkpt lat="48.40453" lon="7.27404">
        <ele>1050.7</ele>
        <time>2022-04-10T10:14:48.883Z</time>
      </trkpt>
      <trkpt lat="48.40467" lon="7.27405">
        <ele>1050.3</ele>
        <time>2022-04-10T10:14:58.963Z</time>
      </trkpt>
      <trkpt lat="48.40481" lon="7.27411">
        <ele>1049.3</ele>
        <time>2022-04-10T10:15:09.021Z</time>
      </trkpt>
      <trkpt lat="48.40498" lon="7.27412">
        <ele>1048.6</ele>
        <time>2022-04-10T10:15:18.923Z</time>
      </trkpt>
      <trkpt lat="48.4051" lon="7.27413">
        <ele>1048.4</ele>
        <time>2022-04-10T10:15:28.343Z</time>
      </trkpt>
      <trkpt lat="48.40517" lon="7.27414">
        <ele>1048.3</ele>
        <time>2022-04-10T10:15:38.060Z</time>
      </trkpt>
      <trkpt lat="48.40538" lon="7.27419">
        <ele>1047.1</ele>
        <time>2022-04-10T10:15:48.000Z</time>
      </trkpt>
      <trkpt lat="48.40547" lon="7.27427">
        <ele>1045.1</ele>
        <time>2022-04-10T10:15:57.885Z</time>
      </trkpt>
      <trkpt lat="48.40559" lon="7.27436">
        <ele>1042.9</ele>
        <time>2022-04-10T10:16:07.000Z</time>
      </trkpt>
      <trkpt lat="48.40572" lon="7.2745">
        <ele>1039.9</ele>
        <time>2022-04-10T10:16:16.780Z</time>
      </trkpt>
      <trkpt lat="48.40581" lon="7.27461">
        <ele>1037.4</ele>
        <time>2022-04-10T10:16:25.904Z</time>
      </trkpt>
      <trkpt lat="48.4059" lon="7.27475">
        <ele>1034.7</ele>
        <time>2022-04-10T10:16:34.943Z</time>
      </trkpt>
      <trkpt lat="48.40601" lon="7.27486">
        <ele>1032.3</ele>
        <time>2022-04-10T10:16:44.881Z</time>
      </trkpt>
      <trkpt lat="48.40608" lon="7.27493">
        <ele>1030.8</ele>
        <time>2022-04-10T10:16:53.984Z</time>
      </trkpt>
      <trkpt lat="48.40622" lon="7.27507">
        <ele>1027.8</ele>
        <time>2022-04-10T10:17:03.005Z</time>
      </trkpt>
      <trkpt lat="48.4063" lon="7.27515">
        <ele>1026.1</ele>
        <time>2022-04-10T10:17:12.444Z</time>
      </trkpt>
      <trkpt lat="48.40639" lon="7.27519">
        <ele>1025.2</ele>
        <time>2022-04-10T10:17:22.000Z</time>
      </trkpt>
      <trkpt lat="48.40655" lon="7.27525">
        <ele>1026.5</ele>
        <time>2022-04-10T10:17:31.722Z</time>
      </trkpt>
      <trkpt lat="48.40667" lon="7.27531">
        <ele>1027.5</ele>
        <time>2022-04-10T10:17:40.785Z</time>
      </trkpt>
      <trkpt lat="48.40675" lon="7.27535">
        <ele>1028.2</ele>
        <time>2022-04-10T10:17:49.964Z</time>
      </trkpt>
      <trkpt lat="48.40688" lon="7.27543">
        <ele>1029.3</ele>
        <time>2022-04-10T10:17:59.062Z</time>
      </trkpt>
      <trkpt lat="48.40703" lon="7.27557">
        <ele>1031</ele>
        <time>2022-04-10T10:18:08.845Z</time>
      </trkpt>
      <trkpt lat="48.40703" lon="7.27567">
        <ele>1030.3</ele>
        <time>2022-04-10T10:18:18.103Z</time>
      </trkpt>
      <trkpt lat="48.407" lon="7.27583">
        <ele>1028.4</ele>
        <time>2022-04-10T10:18:27.584Z</time>
      </trkpt>
      <trkpt lat="48.40698" lon="7.2759">
        <ele>1027.2</ele>
        <time>2022-04-10T10:18:36.804Z</time>
      </trkpt>
      <trkpt lat="48.40697" lon="7.27621">
        <ele>1024.2</ele>
        <time>2022-04-10T10:18:45.862Z</time>
      </trkpt>
      <trkpt lat="48.40698" lon="7.2764">
        <ele>1023</ele>
        <time>2022-04-10T10:18:55.101Z</time>
      </trkpt>
      <trkpt lat="48.40691" lon="7.27654">
        <ele>1021</ele>
        <time>2022-04-10T10:19:04.943Z</time>
      </trkpt>
      <trkpt lat="48.4069" lon="7.27669">
        <ele>1020.5</ele>
        <time>2022-04-10T10:19:14.000Z</time>
      </trkpt>
      <trkpt lat="48.4069" lon="7.27685">
        <ele>1019.9</ele>
        <time>2022-04-10T10:19:23.083Z</time>
      </trkpt>
      <trkpt lat="48.40687" lon="7.27705">
        <ele>1018.6</ele>
        <time>2022-04-10T10:19:32.782Z</time>
      </trkpt>
      <trkpt lat="48.40689" lon="7.27714">
        <ele>1019.2</ele>
        <time>2022-04-10T10:19:42.000Z</time>
      </trkpt>
      <trkpt lat="48.40691" lon="7.27742">
        <ele>1019</ele>
        <time>2022-04-10T10:19:51.885Z</time>
      </trkpt>
      <trkpt lat="48.40692" lon="7.27756">
        <ele>1019</ele>
        <time>2022-04-10T10:20:01.660Z</time>
      </trkpt>
      <trkpt lat="48.40695" lon="7.2777">
        <ele>1019.4</ele>
        <time>2022-04-10T10:20:11.000Z</time>
      </trkpt>
      <trkpt lat="48.40695" lon="7.27792">
        <ele>1019.3</ele>
        <time>2022-04-10T10:20:20.923Z</time>
      </trkpt>
      <trkpt lat="48.40696" lon="7.27806">
        <ele>1019.5</ele>
        <time>2022-04-10T10:20:30.062Z</time>
      </trkpt>
      <trkpt lat="48.40697" lon="7.27835">
        <ele>1018.9</ele>
        <time>2022-04-10T10:20:39.944Z</time>
      </trkpt>
      <trkpt lat="48.40698" lon="7.27854">
        <ele>1018.3</ele>
        <time>2022-04-10T10:20:49.000Z</time>
      </trkpt>
      <trkpt lat="48.407" lon="7.27874">
        <ele>1018.5</ele>
        <time>2022-04-10T10:20:58.624Z</time>
      </trkpt>
      <trkpt lat="48.407" lon="7.27879">
        <ele>1018.4</ele>
        <time>2022-04-10T10:21:07.983Z</time>
      </trkpt>
      <trkpt lat="48.40703" lon="7.27894">
        <ele>1018.7</ele>
        <time>2022-04-10T10:21:17.000Z</time>
      </trkpt>
      <trkpt lat="48.40705" lon="7.27913">
        <ele>1018.8</ele>
        <time>2022-04-10T10:21:26.503Z</time>
      </trkpt>
      <trkpt lat="48.40706" lon="7.27932">
        <ele>1018.4</ele>
        <time>2022-04-10T10:21:35.983Z</time>
      </trkpt>
      <trkpt lat="48.40711" lon="7.27952">
        <ele>1018.8</ele>
        <time>2022-04-10T10:21:45.082Z</time>
      </trkpt>
      <trkpt lat="48.40714" lon="7.27972">
        <ele>1018.4</ele>
        <time>2022-04-10T10:21:55.000Z</time>
      </trkpt>
      <trkpt lat="48.40716" lon="7.27992">
        <ele>1017.5</ele>
        <time>2022-04-10T10:22:04.883Z</time>
      </trkpt>
      <trkpt lat="48.40718" lon="7.28012">
        <ele>1016.9</ele>
        <time>2022-04-10T10:22:14.000Z</time>
      </trkpt>
      <trkpt lat="48.40722" lon="7.28031">
        <ele>1016.8</ele>
        <time>2022-04-10T10:22:23.802Z</time>
      </trkpt>
      <trkpt lat="48.40726" lon="7.28049">
        <ele>1016.6</ele>
        <time>2022-04-10T10:22:33.000Z</time>
      </trkpt>
      <trkpt lat="48.40729" lon="7.28069">
        <ele>1016</ele>
        <time>2022-04-10T10:22:42.923Z</time>
      </trkpt>
      <trkpt lat="48.4073" lon="7.28084">
        <ele>1015.2</ele>
        <time>2022-04-10T10:22:52.443Z</time>
      </trkpt>
      <trkpt lat="48.4073" lon="7.28094">
        <ele>1014.6</ele>
        <time>2022-04-10T10:23:01.762Z</time>
      </trkpt>
      <trkpt lat="48.40733" lon="7.28112">
        <ele>1014</ele>
        <time>2022-04-10T10:23:10.923Z</time>
      </trkpt>
      <trkpt lat="48.40736" lon="7.28135">
        <ele>1012.2</ele>
        <time>2022-04-10T10:23:20.081Z</time>
      </trkpt>
      <trkpt lat="48.40738" lon="7.28155">
        <ele>1012</ele>
        <time>2022-04-10T10:23:29.823Z</time>
      </trkpt>
      <trkpt lat="48.40741" lon="7.28169">
        <ele>1012.2</ele>
        <time>2022-04-10T10:23:39.000Z</time>
      </trkpt>
      <trkpt lat="48.40744" lon="7.28189">
        <ele>1011.6</ele>
        <time>2022-04-10T10:23:48.121Z</time>
      </trkpt>
      <trkpt lat="48.40745" lon="7.28212">
        <ele>1010.9</ele>
        <time>2022-04-10T10:23:57.380Z</time>
      </trkpt>
      <trkpt lat="48.40748" lon="7.28229">
        <ele>1010.9</ele>
        <time>2022-04-10T10:24:06.659Z</time>
      </trkpt>
      <trkpt lat="48.40749" lon="7.28248">
        <ele>1009.9</ele>
        <time>2022-04-10T10:24:15.884Z</time>
      </trkpt>
      <trkpt lat="48.40751" lon="7.2826">
        <ele>1009</ele>
        <time>2022-04-10T10:24:25.000Z</time>
      </trkpt>
      <trkpt lat="48.40754" lon="7.28273">
        <ele>1008.7</ele>
        <time>2022-04-10T10:24:34.101Z</time>
      </trkpt>
      <trkpt lat="48.40758" lon="7.28299">
        <ele>1006.4</ele>
        <time>2022-04-10T10:24:43.864Z</time>
      </trkpt>
      <trkpt lat="48.40761" lon="7.28318">
        <ele>1004.9</ele>
        <time>2022-04-10T10:24:53.942Z</time>
      </trkpt>
      <trkpt lat="48.40761" lon="7.28334">
        <ele>1002.7</ele>
        <time>2022-04-10T10:25:02.979Z</time>
      </trkpt>
      <trkpt lat="48.40761" lon="7.28347">
        <ele>1001.2</ele>
        <time>2022-04-10T10:25:13.063Z</time>
      </trkpt>
      <trkpt lat="48.40762" lon="7.28373">
        <ele>999.1</ele>
        <time>2022-04-10T10:25:22.823Z</time>
      </trkpt>
      <trkpt lat="48.40763" lon="7.28386">
        <ele>998.3</ele>
        <time>2022-04-10T10:25:31.964Z</time>
      </trkpt>
      <trkpt lat="48.40763" lon="7.28405">
        <ele>997.7</ele>
        <time>2022-04-10T10:25:41.000Z</time>
      </trkpt>
      <trkpt lat="48.40764" lon="7.2843">
        <ele>996.5</ele>
        <time>2022-04-10T10:25:50.763Z</time>
      </trkpt>
      <trkpt lat="48.40762" lon="7.28438">
        <ele>995.5</ele>
        <time>2022-04-10T10:26:00.005Z</time>
      </trkpt>
      <trkpt lat="48.40763" lon="7.28456">
        <ele>994.8</ele>
        <time>2022-04-10T10:26:10.000Z</time>
      </trkpt>
      <trkpt lat="48.40761" lon="7.28478">
        <ele>993.5</ele>
        <time>2022-04-10T10:26:19.104Z</time>
      </trkpt>
      <trkpt lat="48.4076" lon="7.28496">
        <ele>993</ele>
        <time>2022-04-10T10:26:29.000Z</time>
      </trkpt>
      <trkpt lat="48.40757" lon="7.28518">
        <ele>991.4</ele>
        <time>2022-04-10T10:26:38.803Z</time>
      </trkpt>
      <trkpt lat="48.40756" lon="7.28537">
        <ele>990.3</ele>
        <time>2022-04-10T10:26:47.824Z</time>
      </trkpt>
      <trkpt lat="48.40755" lon="7.28551">
        <ele>989.5</ele>
        <time>2022-04-10T10:26:57.000Z</time>
      </trkpt>
      <trkpt lat="48.40752" lon="7.28571">
        <ele>987.5</ele>
        <time>2022-04-10T10:27:07.021Z</time>
      </trkpt>
      <trkpt lat="48.40751" lon="7.28599">
        <ele>985.7</ele>
        <time>2022-04-10T10:27:16.722Z</time>
      </trkpt>
      <trkpt lat="48.40751" lon="7.28621">
        <ele>984.5</ele>
        <time>2022-04-10T10:27:26.337Z</time>
      </trkpt>
      <trkpt lat="48.40752" lon="7.28637">
        <ele>983.6</ele>
        <time>2022-04-10T10:27:35.403Z</time>
      </trkpt>
      <trkpt lat="48.40754" lon="7.28661">
        <ele>982.5</ele>
        <time>2022-04-10T10:27:45.043Z</time>
      </trkpt>
      <trkpt lat="48.40758" lon="7.28676">
        <ele>981.6</ele>
        <time>2022-04-10T10:27:54.063Z</time>
      </trkpt>
      <trkpt lat="48.40761" lon="7.28691">
        <ele>980.6</ele>
        <time>2022-04-10T10:28:04.004Z</time>
      </trkpt>
      <trkpt lat="48.40769" lon="7.28708">
        <ele>981</ele>
        <time>2022-04-10T10:28:13.600Z</time>
      </trkpt>
      <trkpt lat="48.40774" lon="7.28726">
        <ele>980.4</ele>
        <time>2022-04-10T10:28:22.801Z</time>
      </trkpt>
      <trkpt lat="48.40775" lon="7.2874">
        <ele>979.2</ele>
        <time>2022-04-10T10:28:31.944Z</time>
      </trkpt>
      <trkpt lat="48.40779" lon="7.2876">
        <ele>978</ele>
        <time>2022-04-10T10:28:41.641Z</time>
      </trkpt>
      <trkpt lat="48.4079" lon="7.28784">
        <ele>977.5</ele>
        <time>2022-04-10T10:28:50.844Z</time>
      </trkpt>
      <trkpt lat="48.40796" lon="7.28797">
        <ele>977.4</ele>
        <time>2022-04-10T10:29:00.084Z</time>
      </trkpt>
      <trkpt lat="48.408" lon="7.28808">
        <ele>977</ele>
        <time>2022-04-10T10:29:09.601Z</time>
      </trkpt>
      <trkpt lat="48.40809" lon="7.28827">
        <ele>976.7</ele>
        <time>2022-04-10T10:29:18.624Z</time>
      </trkpt>
      <trkpt lat="48.40812" lon="7.28839">
        <ele>975.8</ele>
        <time>2022-04-10T10:29:28.000Z</time>
      </trkpt>
      <trkpt lat="48.40822" lon="7.28869">
        <ele>973.5</ele>
        <time>2022-04-10T10:29:37.406Z</time>
      </trkpt>
      <trkpt lat="48.40826" lon="7.28882">
        <ele>972.3</ele>
        <time>2022-04-10T10:29:46.481Z</time>
      </trkpt>
      <trkpt lat="48.40831" lon="7.28892">
        <ele>971.8</ele>
        <time>2022-04-10T10:29:55.721Z</time>
      </trkpt>
      <trkpt lat="48.4084" lon="7.28906">
        <ele>971.3</ele>
        <time>2022-04-10T10:30:04.919Z</time>
      </trkpt>
      <trkpt lat="48.40848" lon="7.28918">
        <ele>970.8</ele>
        <time>2022-04-10T10:30:14.078Z</time>
      </trkpt>
      <trkpt lat="48.40859" lon="7.28934">
        <ele>970.4</ele>
        <time>2022-04-10T10:30:24.000Z</time>
      </trkpt>
      <trkpt lat="48.40869" lon="7.28949">
        <ele>969</ele>
        <time>2022-04-10T10:30:33.583Z</time>
      </trkpt>
      <trkpt lat="48.4088" lon="7.28964">
        <ele>967</ele>
        <time>2022-04-10T10:30:42.662Z</time>
      </trkpt>
      <trkpt lat="48.40892" lon="7.2898">
        <ele>964.7</ele>
        <time>2022-04-10T10:30:51.840Z</time>
      </trkpt>
      <trkpt lat="48.40897" lon="7.28987">
        <ele>963.5</ele>
        <time>2022-04-10T10:31:00.964Z</time>
      </trkpt>
      <trkpt lat="48.4091" lon="7.28994">
        <ele>963</ele>
        <time>2022-04-10T10:31:10.123Z</time>
      </trkpt>
      <trkpt lat="48.40919" lon="7.29">
        <ele>962.1</ele>
        <time>2022-04-10T10:31:19.505Z</time>
      </trkpt>
      <trkpt lat="48.40935" lon="7.29002">
        <ele>961.4</ele>
        <time>2022-04-10T10:31:28.724Z</time>
      </trkpt>
      <trkpt lat="48.40945" lon="7.29001">
        <ele>961.7</ele>
        <time>2022-04-10T10:31:38.000Z</time>
      </trkpt>
      <trkpt lat="48.40961" lon="7.29004">
        <ele>960.5</ele>
        <time>2022-04-10T10:31:48.000Z</time>
      </trkpt>
      <trkpt lat="48.40974" lon="7.29003">
        <ele>960.4</ele>
        <time>2022-04-10T10:31:58.000Z</time>
      </trkpt>
      <trkpt lat="48.4098" lon="7.29003">
        <ele>960.8</ele>
        <time>2022-04-10T10:32:07.544Z</time>
      </trkpt>
      <trkpt lat="48.40996" lon="7.29007">
        <ele>961</ele>
        <time>2022-04-10T10:32:16.844Z</time>
      </trkpt>
      <trkpt lat="48.41009" lon="7.29017">
        <ele>960.8</ele>
        <time>2022-04-10T10:32:25.921Z</time>
      </trkpt>
      <trkpt lat="48.41011" lon="7.2902">
        <ele>960.7</ele>
        <time>2022-04-10T10:32:35.000Z</time>
      </trkpt>
      <trkpt lat="48.41016" lon="7.29028">
        <ele>959.8</ele>
        <time>2022-04-10T10:32:44.681Z</time>
      </trkpt>
      <trkpt lat="48.41011" lon="7.29044">
        <ele>954.5</ele>
        <time>2022-04-10T10:32:54.000Z</time>
      </trkpt>
      <trkpt lat="48.41014" lon="7.29061">
        <ele>951.3</ele>
        <time>2022-04-10T10:33:04.000Z</time>
      </trkpt>
      <trkpt lat="48.41015" lon="7.29044">
        <ele>955.8</ele>
        <time>2022-04-10T10:33:13.821Z</time>
      </trkpt>
      <trkpt lat="48.41032" lon="7.2904">
        <ele>960.8</ele>
        <time>2022-04-10T10:33:23.121Z</time>
      </trkpt>
      <trkpt lat="48.41037" lon="7.29049">
        <ele>959.7</ele>
        <time>2022-04-10T10:33:32.623Z</time>
      </trkpt>
      <trkpt lat="48.41047" lon="7.29073">
        <ele>957.1</ele>
        <time>2022-04-10T10:33:42.740Z</time>
      </trkpt>
      <trkpt lat="48.41054" lon="7.29091">
        <ele>954.9</ele>
        <time>2022-04-10T10:33:52.000Z</time>
      </trkpt>
      <trkpt lat="48.41062" lon="7.29105">
        <ele>953.6</ele>
        <time>2022-04-10T10:34:01.662Z</time>
      </trkpt>
      <trkpt lat="48.41069" lon="7.29119">
        <ele>952.4</ele>
        <time>2022-04-10T10:34:10.682Z</time>
      </trkpt>
      <trkpt lat="48.41073" lon="7.29124">
        <ele>952.2</ele>
        <time>2022-04-10T10:34:20.102Z</time>
      </trkpt>
      <trkpt lat="48.41084" lon="7.29141">
        <ele>950.8</ele>
        <time>2022-04-10T10:34:29.728Z</time>
      </trkpt>
      <trkpt lat="48.41088" lon="7.29147">
        <ele>950.7</ele>
        <time>2022-04-10T10:34:38.943Z</time>
      </trkpt>
      <trkpt lat="48.41098" lon="7.29157">
        <ele>950.8</ele>
        <time>2022-04-10T10:34:49.121Z</time>
      </trkpt>
      <trkpt lat="48.411" lon="7.29159">
        <ele>950.8</ele>
        <time>2022-04-10T10:34:58.785Z</time>
      </trkpt>
      <trkpt lat="48.41117" lon="7.29181">
        <ele>950</ele>
        <time>2022-04-10T10:35:07.883Z</time>
      </trkpt>
      <trkpt lat="48.41128" lon="7.29191">
        <ele>949</ele>
        <time>2022-04-10T10:35:18.000Z</time>
      </trkpt>
      <trkpt lat="48.41141" lon="7.292">
        <ele>947.9</ele>
        <time>2022-04-10T10:35:27.624Z</time>
      </trkpt>
      <trkpt lat="48.41148" lon="7.29205">
        <ele>947</ele>
        <time>2022-04-10T10:35:37.104Z</time>
      </trkpt>
      <trkpt lat="48.41164" lon="7.29212">
        <ele>946.2</ele>
        <time>2022-04-10T10:35:46.762Z</time>
      </trkpt>
      <trkpt lat="48.41177" lon="7.29215">
        <ele>945.6</ele>
        <time>2022-04-10T10:35:56.000Z</time>
      </trkpt>
      <trkpt lat="48.41187" lon="7.29216">
        <ele>945.5</ele>
        <time>2022-04-10T10:36:05.842Z</time>
      </trkpt>
      <trkpt lat="48.41198" lon="7.29216">
        <ele>945.5</ele>
        <time>2022-04-10T10:36:16.001Z</time>
      </trkpt>
      <trkpt lat="48.41211" lon="7.29218">
        <ele>945.1</ele>
        <time>2022-04-10T10:36:25.404Z</time>
      </trkpt>
      <trkpt lat="48.41232" lon="7.29219">
        <ele>944.3</ele>
        <time>2022-04-10T10:36:34.463Z</time>
      </trkpt>
      <trkpt lat="48.41239" lon="7.2922">
        <ele>943.9</ele>
        <time>2022-04-10T10:36:43.802Z</time>
      </trkpt>
      <trkpt lat="48.41248" lon="7.29224">
        <ele>942.7</ele>
        <time>2022-04-10T10:36:53.000Z</time>
      </trkpt>
      <trkpt lat="48.41258" lon="7.2923">
        <ele>942</ele>
        <time>2022-04-10T10:37:03.101Z</time>
      </trkpt>
      <trkpt lat="48.41279" lon="7.29241">
        <ele>941.1</ele>
        <time>2022-04-10T10:37:13.022Z</time>
      </trkpt>
      <trkpt lat="48.41283" lon="7.29246">
        <ele>940.3</ele>
        <time>2022-04-10T10:37:22.102Z</time>
      </trkpt>
      <trkpt lat="48.41288" lon="7.29248">
        <ele>940.5</ele>
        <time>2022-04-10T10:37:32.000Z</time>
      </trkpt>
      <trkpt lat="48.41298" lon="7.29262">
        <ele>938.7</ele>
        <time>2022-04-10T10:37:41.383Z</time>
      </trkpt>
      <trkpt lat="48.41306" lon="7.29264">
        <ele>939</ele>
        <time>2022-04-10T10:37:50.784Z</time>
      </trkpt>
      <trkpt lat="48.41318" lon="7.29278">
        <ele>938.2</ele>
        <time>2022-04-10T10:38:00.105Z</time>
      </trkpt>
      <trkpt lat="48.41323" lon="7.29286">
        <ele>937.6</ele>
        <time>2022-04-10T10:38:10.000Z</time>
      </trkpt>
      <trkpt lat="48.41327" lon="7.29286">
        <ele>938.4</ele>
        <time>2022-04-10T10:38:30.000Z</time>
      </trkpt>
      <trkpt lat="48.41333" lon="7.29286">
        <ele>939.4</ele>
        <time>2022-04-10T10:38:40.000Z</time>
      </trkpt>
      <trkpt lat="48.41331" lon="7.29287">
        <ele>939</ele>
        <time>2022-04-10T10:39:28.000Z</time>
      </trkpt>
      <trkpt lat="48.41325" lon="7.29275">
        <ele>939.9</ele>
        <time>2022-04-10T10:39:38.000Z</time>
      </trkpt>
      <trkpt lat="48.41323" lon="7.29278">
        <ele>939.2</ele>
        <time>2022-04-10T10:39:48.000Z</time>
      </trkpt>
      <trkpt lat="48.41326" lon="7.29278">
        <ele>939.5</ele>
        <time>2022-04-10T10:40:12.042Z</time>
      </trkpt>
      <trkpt lat="48.41335" lon="7.29294">
        <ele>938.4</ele>
        <time>2022-04-10T10:40:21.422Z</time>
      </trkpt>
      <trkpt lat="48.41344" lon="7.29317">
        <ele>936.7</ele>
        <time>2022-04-10T10:40:30.504Z</time>
      </trkpt>
      <trkpt lat="48.41353" lon="7.29325">
        <ele>937.4</ele>
        <time>2022-04-10T10:40:39.738Z</time>
      </trkpt>
      <trkpt lat="48.41361" lon="7.29341">
        <ele>936.7</ele>
        <time>2022-04-10T10:40:49.000Z</time>
      </trkpt>
      <trkpt lat="48.41359" lon="7.29358">
        <ele>934.1</ele>
        <time>2022-04-10T10:40:58.080Z</time>
      </trkpt>
      <trkpt lat="48.41358" lon="7.29375">
        <ele>931.3</ele>
        <time>2022-04-10T10:41:07.119Z</time>
      </trkpt>
      <trkpt lat="48.41363" lon="7.294">
        <ele>928.7</ele>
        <time>2022-04-10T10:41:17.000Z</time>
      </trkpt>
      <trkpt lat="48.41367" lon="7.29421">
        <ele>926.8</ele>
        <time>2022-04-10T10:41:26.560Z</time>
      </trkpt>
      <trkpt lat="48.41372" lon="7.29438">
        <ele>925.4</ele>
        <time>2022-04-10T10:41:35.943Z</time>
      </trkpt>
      <trkpt lat="48.41379" lon="7.29445">
        <ele>925.8</ele>
        <time>2022-04-10T10:41:45.000Z</time>
      </trkpt>
      <trkpt lat="48.41382" lon="7.29452">
        <ele>925.4</ele>
        <time>2022-04-10T10:41:54.462Z</time>
      </trkpt>
      <trkpt lat="48.41388" lon="7.29443">
        <ele>928.2</ele>
        <time>2022-04-10T10:42:03.641Z</time>
      </trkpt>
      <trkpt lat="48.41396" lon="7.29454">
        <ele>928.1</ele>
        <time>2022-04-10T10:42:12.865Z</time>
      </trkpt>
      <trkpt lat="48.41399" lon="7.2948">
        <ele>924.6</ele>
        <time>2022-04-10T10:42:22.000Z</time>
      </trkpt>
      <trkpt lat="48.41403" lon="7.29494">
        <ele>923.4</ele>
        <time>2022-04-10T10:42:31.560Z</time>
      </trkpt>
      <trkpt lat="48.41405" lon="7.29506">
        <ele>921.8</ele>
        <time>2022-04-10T10:42:40.922Z</time>
      </trkpt>
      <trkpt lat="48.41417" lon="7.29524">
        <ele>920.7</ele>
        <time>2022-04-10T10:42:51.021Z</time>
      </trkpt>
      <trkpt lat="48.41422" lon="7.29549">
        <ele>916.3</ele>
        <time>2022-04-10T10:43:00.605Z</time>
      </trkpt>
      <trkpt lat="48.41429" lon="7.2958">
        <ele>911.9</ele>
        <time>2022-04-10T10:43:10.099Z</time>
      </trkpt>
      <trkpt lat="48.41437" lon="7.29595">
        <ele>910.6</ele>
        <time>2022-04-10T10:43:19.983Z</time>
      </trkpt>
      <trkpt lat="48.41442" lon="7.29587">
        <ele>913</ele>
        <time>2022-04-10T10:43:29.579Z</time>
      </trkpt>
      <trkpt lat="48.41444" lon="7.29589">
        <ele>912.9</ele>
        <time>2022-04-10T10:43:39.000Z</time>
      </trkpt>
      <trkpt lat="48.41441" lon="7.29593">
        <ele>911.6</ele>
        <time>2022-04-10T10:44:45.000Z</time>
      </trkpt>
      <trkpt lat="48.41438" lon="7.29597">
        <ele>910.3</ele>
        <time>2022-04-10T10:44:55.000Z</time>
      </trkpt>
      <trkpt lat="48.41438" lon="7.29599">
        <ele>910</ele>
        <time>2022-04-10T10:45:16.799Z</time>
      </trkpt>
      <trkpt lat="48.41449" lon="7.29612">
        <ele>909.5</ele>
        <time>2022-04-10T10:45:26.725Z</time>
      </trkpt>
      <trkpt lat="48.41452" lon="7.29621">
        <ele>908</ele>
        <time>2022-04-10T10:45:35.925Z</time>
      </trkpt>
      <trkpt lat="48.41463" lon="7.29634">
        <ele>906.6</ele>
        <time>2022-04-10T10:45:45.962Z</time>
      </trkpt>
      <trkpt lat="48.41479" lon="7.2965">
        <ele>905.4</ele>
        <time>2022-04-10T10:45:55.960Z</time>
      </trkpt>
      <trkpt lat="48.41491" lon="7.29661">
        <ele>904.4</ele>
        <time>2022-04-10T10:46:05.402Z</time>
      </trkpt>
      <trkpt lat="48.41498" lon="7.29667">
        <ele>903.7</ele>
        <time>2022-04-10T10:46:14.863Z</time>
      </trkpt>
      <trkpt lat="48.41513" lon="7.29678">
        <ele>901.9</ele>
        <time>2022-04-10T10:46:24.358Z</time>
      </trkpt>
      <trkpt lat="48.41526" lon="7.29683">
        <ele>901.4</ele>
        <time>2022-04-10T10:46:33.682Z</time>
      </trkpt>
      <trkpt lat="48.41533" lon="7.29685">
        <ele>901.4</ele>
        <time>2022-04-10T10:46:42.760Z</time>
      </trkpt>
      <trkpt lat="48.4155" lon="7.29685">
        <ele>902.6</ele>
        <time>2022-04-10T10:46:52.000Z</time>
      </trkpt>
      <trkpt lat="48.41559" lon="7.29684">
        <ele>903.6</ele>
        <time>2022-04-10T10:47:01.401Z</time>
      </trkpt>
      <trkpt lat="48.41567" lon="7.29695">
        <ele>902.5</ele>
        <time>2022-04-10T10:47:10.924Z</time>
      </trkpt>
      <trkpt lat="48.4157" lon="7.29717">
        <ele>899.4</ele>
        <time>2022-04-10T10:47:20.329Z</time>
      </trkpt>
      <trkpt lat="48.41572" lon="7.29738">
        <ele>896.4</ele>
        <time>2022-04-10T10:47:29.763Z</time>
      </trkpt>
      <trkpt lat="48.41573" lon="7.29759">
        <ele>894</ele>
        <time>2022-04-10T10:47:39.000Z</time>
      </trkpt>
      <trkpt lat="48.41573" lon="7.29784">
        <ele>891.6</ele>
        <time>2022-04-10T10:47:48.664Z</time>
      </trkpt>
      <trkpt lat="48.41575" lon="7.298">
        <ele>890.4</ele>
        <time>2022-04-10T10:47:58.085Z</time>
      </trkpt>
      <trkpt lat="48.41576" lon="7.29813">
        <ele>889.6</ele>
        <time>2022-04-10T10:48:07.480Z</time>
      </trkpt>
      <trkpt lat="48.41579" lon="7.29846">
        <ele>886.9</ele>
        <time>2022-04-10T10:48:17.062Z</time>
      </trkpt>
      <trkpt lat="48.41582" lon="7.2986">
        <ele>885.7</ele>
        <time>2022-04-10T10:48:26.441Z</time>
      </trkpt>
      <trkpt lat="48.41586" lon="7.29877">
        <ele>885.2</ele>
        <time>2022-04-10T10:48:35.483Z</time>
      </trkpt>
      <trkpt lat="48.4159" lon="7.299">
        <ele>883.8</ele>
        <time>2022-04-10T10:48:45.023Z</time>
      </trkpt>
      <trkpt lat="48.41593" lon="7.29913">
        <ele>883.3</ele>
        <time>2022-04-10T10:48:54.540Z</time>
      </trkpt>
      <trkpt lat="48.41597" lon="7.29937">
        <ele>881.3</ele>
        <time>2022-04-10T10:49:04.060Z</time>
      </trkpt>
      <trkpt lat="48.416" lon="7.29959">
        <ele>879.6</ele>
        <time>2022-04-10T10:49:13.142Z</time>
      </trkpt>
      <trkpt lat="48.41602" lon="7.29977">
        <ele>878.3</ele>
        <time>2022-04-10T10:49:22.682Z</time>
      </trkpt>
      <trkpt lat="48.41607" lon="7.29991">
        <ele>877.9</ele>
        <time>2022-04-10T10:49:32.681Z</time>
      </trkpt>
      <trkpt lat="48.41608" lon="7.30009">
        <ele>876.2</ele>
        <time>2022-04-10T10:49:42.000Z</time>
      </trkpt>
      <trkpt lat="48.41612" lon="7.30026">
        <ele>875.5</ele>
        <time>2022-04-10T10:49:51.437Z</time>
      </trkpt>
      <trkpt lat="48.41617" lon="7.30047">
        <ele>874.5</ele>
        <time>2022-04-10T10:50:00.884Z</time>
      </trkpt>
      <trkpt lat="48.4162" lon="7.30065">
        <ele>873.1</ele>
        <time>2022-04-10T10:50:09.925Z</time>
      </trkpt>
      <trkpt lat="48.41623" lon="7.30081">
        <ele>871.8</ele>
        <time>2022-04-10T10:50:19.384Z</time>
      </trkpt>
      <trkpt lat="48.41628" lon="7.30103">
        <ele>870.2</ele>
        <time>2022-04-10T10:50:28.821Z</time>
      </trkpt>
      <trkpt lat="48.41631" lon="7.30118">
        <ele>868.9</ele>
        <time>2022-04-10T10:50:38.000Z</time>
      </trkpt>
      <trkpt lat="48.41638" lon="7.30144">
        <ele>867.3</ele>
        <time>2022-04-10T10:50:47.159Z</time>
      </trkpt>
      <trkpt lat="48.41642" lon="7.30157">
        <ele>866.9</ele>
        <time>2022-04-10T10:50:56.762Z</time>
      </trkpt>
      <trkpt lat="48.41645" lon="7.30166">
        <ele>866.7</ele>
        <time>2022-04-10T10:51:06.000Z</time>
      </trkpt>
      <trkpt lat="48.41654" lon="7.30186">
        <ele>865.9</ele>
        <time>2022-04-10T10:51:15.705Z</time>
      </trkpt>
      <trkpt lat="48.41662" lon="7.30213">
        <ele>864.1</ele>
        <time>2022-04-10T10:51:24.824Z</time>
      </trkpt>
      <trkpt lat="48.41663" lon="7.30222">
        <ele>863.1</ele>
        <time>2022-04-10T10:51:34.344Z</time>
      </trkpt>
      <trkpt lat="48.41671" lon="7.30241">
        <ele>862.2</ele>
        <time>2022-04-10T10:51:43.862Z</time>
      </trkpt>
      <trkpt lat="48.41673" lon="7.30261">
        <ele>859.6</ele>
        <time>2022-04-10T10:51:52.880Z</time>
      </trkpt>
      <trkpt lat="48.41676" lon="7.30283">
        <ele>857.3</ele>
        <time>2022-04-10T10:52:01.981Z</time>
      </trkpt>
      <trkpt lat="48.41684" lon="7.30301">
        <ele>856.4</ele>
        <time>2022-04-10T10:52:11.025Z</time>
      </trkpt>
      <trkpt lat="48.41688" lon="7.30312">
        <ele>855.5</ele>
        <time>2022-04-10T10:52:20.580Z</time>
      </trkpt>
      <trkpt lat="48.41695" lon="7.30337">
        <ele>852.6</ele>
        <time>2022-04-10T10:52:30.001Z</time>
      </trkpt>
      <trkpt lat="48.41701" lon="7.3035">
        <ele>851.8</ele>
        <time>2022-04-10T10:52:39.041Z</time>
      </trkpt>
      <trkpt lat="48.41705" lon="7.30358">
        <ele>851.3</ele>
        <time>2022-04-10T10:52:48.381Z</time>
      </trkpt>
      <trkpt lat="48.41718" lon="7.30368">
        <ele>852.2</ele>
        <time>2022-04-10T10:52:57.603Z</time>
      </trkpt>
      <trkpt lat="48.41725" lon="7.30388">
        <ele>850.6</ele>
        <time>2022-04-10T10:53:06.941Z</time>
      </trkpt>
      <trkpt lat="48.41727" lon="7.30403">
        <ele>849.4</ele>
        <time>2022-04-10T10:53:16.062Z</time>
      </trkpt>
      <trkpt lat="48.41727" lon="7.30405">
        <ele>849.1</ele>
        <time>2022-04-10T10:53:27.000Z</time>
      </trkpt>
      <trkpt lat="48.41727" lon="7.30439">
        <ele>845.3</ele>
        <time>2022-04-10T10:53:36.862Z</time>
      </trkpt>
      <trkpt lat="48.41734" lon="7.30459">
        <ele>844.1</ele>
        <time>2022-04-10T10:53:45.921Z</time>
      </trkpt>
      <trkpt lat="48.41742" lon="7.30477">
        <ele>843.3</ele>
        <time>2022-04-10T10:53:55.900Z</time>
      </trkpt>
      <trkpt lat="48.41746" lon="7.30489">
        <ele>842.6</ele>
        <time>2022-04-10T10:54:06.080Z</time>
      </trkpt>
      <trkpt lat="48.4175" lon="7.30516">
        <ele>840.2</ele>
        <time>2022-04-10T10:54:15.723Z</time>
      </trkpt>
      <trkpt lat="48.41756" lon="7.30523">
        <ele>840.4</ele>
        <time>2022-04-10T10:54:25.000Z</time>
      </trkpt>
      <trkpt lat="48.41762" lon="7.30556">
        <ele>837.7</ele>
        <time>2022-04-10T10:54:34.020Z</time>
      </trkpt>
      <trkpt lat="48.41768" lon="7.30568">
        <ele>837.6</ele>
        <time>2022-04-10T10:54:43.041Z</time>
      </trkpt>
      <trkpt lat="48.41778" lon="7.30569">
        <ele>839.1</ele>
        <time>2022-04-10T10:54:52.081Z</time>
      </trkpt>
      <trkpt lat="48.41776" lon="7.30579">
        <ele>838</ele>
        <time>2022-04-10T10:55:01.922Z</time>
      </trkpt>
      <trkpt lat="48.41765" lon="7.30587">
        <ele>836</ele>
        <time>2022-04-10T10:55:11.143Z</time>
      </trkpt>
      <trkpt lat="48.41757" lon="7.30597">
        <ele>834.2</ele>
        <time>2022-04-10T10:55:21.022Z</time>
      </trkpt>
      <trkpt lat="48.4175" lon="7.30613">
        <ele>831.9</ele>
        <time>2022-04-10T10:55:30.920Z</time>
      </trkpt>
      <trkpt lat="48.41751" lon="7.30618">
        <ele>831.8</ele>
        <time>2022-04-10T10:55:40.984Z</time>
      </trkpt>
      <trkpt lat="48.41759" lon="7.30635">
        <ele>833</ele>
        <time>2022-04-10T10:55:50.542Z</time>
      </trkpt>
      <trkpt lat="48.41764" lon="7.30659">
        <ele>833</ele>
        <time>2022-04-10T10:55:59.720Z</time>
      </trkpt>
      <trkpt lat="48.41763" lon="7.30666">
        <ele>832.2</ele>
        <time>2022-04-10T10:56:09.000Z</time>
      </trkpt>
      <trkpt lat="48.41748" lon="7.30677">
        <ele>829.8</ele>
        <time>2022-04-10T10:56:18.964Z</time>
      </trkpt>
      <trkpt lat="48.41742" lon="7.30681">
        <ele>829.4</ele>
        <time>2022-04-10T10:56:28.083Z</time>
      </trkpt>
      <trkpt lat="48.41725" lon="7.30686">
        <ele>827.6</ele>
        <time>2022-04-10T10:56:38.000Z</time>
      </trkpt>
      <trkpt lat="48.41724" lon="7.30686">
        <ele>827.4</ele>
        <time>2022-04-10T10:56:53.000Z</time>
      </trkpt>
      <trkpt lat="48.41723" lon="7.30686">
        <ele>827.2</ele>
        <time>2022-04-10T10:57:02.543Z</time>
      </trkpt>
      <trkpt lat="48.41705" lon="7.30684">
        <ele>824.1</ele>
        <time>2022-04-10T10:57:11.965Z</time>
      </trkpt>
      <trkpt lat="48.41693" lon="7.30696">
        <ele>823</ele>
        <time>2022-04-10T10:57:21.461Z</time>
      </trkpt>
      <trkpt lat="48.4168" lon="7.30707">
        <ele>822</ele>
        <time>2022-04-10T10:57:30.963Z</time>
      </trkpt>
      <trkpt lat="48.41669" lon="7.30718">
        <ele>821.1</ele>
        <time>2022-04-10T10:57:40.207Z</time>
      </trkpt>
      <trkpt lat="48.41659" lon="7.30727">
        <ele>819.4</ele>
        <time>2022-04-10T10:57:49.940Z</time>
      </trkpt>
      <trkpt lat="48.41645" lon="7.3074">
        <ele>816.9</ele>
        <time>2022-04-10T10:57:58.982Z</time>
      </trkpt>
      <trkpt lat="48.41639" lon="7.30748">
        <ele>815.8</ele>
        <time>2022-04-10T10:58:08.000Z</time>
      </trkpt>
      <trkpt lat="48.41628" lon="7.30769">
        <ele>815</ele>
        <time>2022-04-10T10:58:17.842Z</time>
      </trkpt>
      <trkpt lat="48.4162" lon="7.30786">
        <ele>814.3</ele>
        <time>2022-04-10T10:58:27.485Z</time>
      </trkpt>
      <trkpt lat="48.41612" lon="7.30808">
        <ele>814.2</ele>
        <time>2022-04-10T10:58:37.002Z</time>
      </trkpt>
      <trkpt lat="48.41607" lon="7.30821">
        <ele>813.7</ele>
        <time>2022-04-10T10:58:46.681Z</time>
      </trkpt>
      <trkpt lat="48.41602" lon="7.3083">
        <ele>813.2</ele>
        <time>2022-04-10T10:58:55.722Z</time>
      </trkpt>
      <trkpt lat="48.4159" lon="7.30855">
        <ele>812.8</ele>
        <time>2022-04-10T10:59:05.145Z</time>
      </trkpt>
      <trkpt lat="48.41587" lon="7.30866">
        <ele>812.9</ele>
        <time>2022-04-10T10:59:14.860Z</time>
      </trkpt>
      <trkpt lat="48.41579" lon="7.30882">
        <ele>812.6</ele>
        <time>2022-04-10T10:59:24.000Z</time>
      </trkpt>
      <trkpt lat="48.41578" lon="7.30885">
        <ele>812.6</ele>
        <time>2022-04-10T10:59:34.000Z</time>
      </trkpt>
      <trkpt lat="48.41568" lon="7.30883">
        <ele>810.3</ele>
        <time>2022-04-10T10:59:44.000Z</time>
      </trkpt>
      <trkpt lat="48.41566" lon="7.30886">
        <ele>810.2</ele>
        <time>2022-04-10T10:59:55.262Z</time>
      </trkpt>
      <trkpt lat="48.4156" lon="7.30913">
        <ele>810.5</ele>
        <time>2022-04-10T11:00:04.724Z</time>
      </trkpt>
      <trkpt lat="48.41557" lon="7.30919">
        <ele>810.3</ele>
        <time>2022-04-10T11:00:14.002Z</time>
      </trkpt>
      <trkpt lat="48.41552" lon="7.30938">
        <ele>810.1</ele>
        <time>2022-04-10T11:00:23.042Z</time>
      </trkpt>
      <trkpt lat="48.41549" lon="7.30948">
        <ele>810.1</ele>
        <time>2022-04-10T11:00:32.866Z</time>
      </trkpt>
      <trkpt lat="48.41536" lon="7.30953">
        <ele>808.1</ele>
        <time>2022-04-10T11:00:42.000Z</time>
      </trkpt>
      <trkpt lat="48.41532" lon="7.30953">
        <ele>807.3</ele>
        <time>2022-04-10T11:00:52.000Z</time>
      </trkpt>
      <trkpt lat="48.41527" lon="7.30961">
        <ele>807</ele>
        <time>2022-04-10T11:01:01.699Z</time>
      </trkpt>
      <trkpt lat="48.41524" lon="7.30969">
        <ele>806.9</ele>
        <time>2022-04-10T11:01:11.000Z</time>
      </trkpt>
      <trkpt lat="48.41531" lon="7.30981">
        <ele>809.5</ele>
        <time>2022-04-10T11:01:21.000Z</time>
      </trkpt>
      <trkpt lat="48.41541" lon="7.30981">
        <ele>811.3</ele>
        <time>2022-04-10T11:01:31.000Z</time>
      </trkpt>
      <trkpt lat="48.41543" lon="7.3098">
        <ele>811.6</ele>
        <time>2022-04-10T11:01:41.000Z</time>
      </trkpt>
      <trkpt lat="48.41542" lon="7.3098">
        <ele>811.3</ele>
        <time>2022-04-10T11:01:54.000Z</time>
      </trkpt>
      <trkpt lat="48.41526" lon="7.30992">
        <ele>809.8</ele>
        <time>2022-04-10T11:02:03.740Z</time>
      </trkpt>
      <trkpt lat="48.41513" lon="7.31001">
        <ele>807.9</ele>
        <time>2022-04-10T11:02:12.744Z</time>
      </trkpt>
      <trkpt lat="48.41499" lon="7.31014">
        <ele>806.2</ele>
        <time>2022-04-10T11:02:22.000Z</time>
      </trkpt>
      <trkpt lat="48.41486" lon="7.31022">
        <ele>804.6</ele>
        <time>2022-04-10T11:02:31.461Z</time>
      </trkpt>
      <trkpt lat="48.4147" lon="7.3103">
        <ele>802.8</ele>
        <time>2022-04-10T11:02:41.003Z</time>
      </trkpt>
      <trkpt lat="48.41459" lon="7.31036">
        <ele>801.6</ele>
        <time>2022-04-10T11:02:50.041Z</time>
      </trkpt>
      <trkpt lat="48.41451" lon="7.31045">
        <ele>801</ele>
        <time>2022-04-10T11:02:59.276Z</time>
      </trkpt>
      <trkpt lat="48.41437" lon="7.31056">
        <ele>799.6</ele>
        <time>2022-04-10T11:03:08.983Z</time>
      </trkpt>
      <trkpt lat="48.41428" lon="7.31063">
        <ele>798.5</ele>
        <time>2022-04-10T11:03:19.084Z</time>
      </trkpt>
      <trkpt lat="48.41415" lon="7.31071">
        <ele>796.8</ele>
        <time>2022-04-10T11:03:28.424Z</time>
      </trkpt>
      <trkpt lat="48.41396" lon="7.31077">
        <ele>794.4</ele>
        <time>2022-04-10T11:03:37.904Z</time>
      </trkpt>
      <trkpt lat="48.41387" lon="7.31076">
        <ele>793.1</ele>
        <time>2022-04-10T11:03:47.349Z</time>
      </trkpt>
      <trkpt lat="48.41374" lon="7.31074">
        <ele>791.9</ele>
        <time>2022-04-10T11:03:56.942Z</time>
      </trkpt>
      <trkpt lat="48.41362" lon="7.31069">
        <ele>790.5</ele>
        <time>2022-04-10T11:04:06.959Z</time>
      </trkpt>
      <trkpt lat="48.4135" lon="7.31073">
        <ele>790.2</ele>
        <time>2022-04-10T11:04:16.000Z</time>
      </trkpt>
      <trkpt lat="48.41331" lon="7.31074">
        <ele>789.3</ele>
        <time>2022-04-10T11:04:25.703Z</time>
      </trkpt>
      <trkpt lat="48.4131" lon="7.31062">
        <ele>787.6</ele>
        <time>2022-04-10T11:04:35.000Z</time>
      </trkpt>
      <trkpt lat="48.41301" lon="7.31062">
        <ele>787.2</ele>
        <time>2022-04-10T11:04:44.840Z</time>
      </trkpt>
      <trkpt lat="48.41296" lon="7.3106">
        <ele>786.9</ele>
        <time>2022-04-10T11:04:54.343Z</time>
      </trkpt>
      <trkpt lat="48.41285" lon="7.31055">
        <ele>786.2</ele>
        <time>2022-04-10T11:05:03.703Z</time>
      </trkpt>
      <trkpt lat="48.41272" lon="7.31052">
        <ele>785.7</ele>
        <time>2022-04-10T11:05:12.742Z</time>
      </trkpt>
      <trkpt lat="48.4126" lon="7.31051">
        <ele>785.6</ele>
        <time>2022-04-10T11:05:21.781Z</time>
      </trkpt>
      <trkpt lat="48.41242" lon="7.31051">
        <ele>785.5</ele>
        <time>2022-04-10T11:05:31.000Z</time>
      </trkpt>
      <trkpt lat="48.41236" lon="7.31053">
        <ele>785.3</ele>
        <time>2022-04-10T11:05:40.041Z</time>
      </trkpt>
      <trkpt lat="48.41221" lon="7.3105">
        <ele>784.8</ele>
        <time>2022-04-10T11:05:49.180Z</time>
      </trkpt>
      <trkpt lat="48.41207" lon="7.31057">
        <ele>785</ele>
        <time>2022-04-10T11:05:58.341Z</time>
      </trkpt>
      <trkpt lat="48.41199" lon="7.31055">
        <ele>785</ele>
        <time>2022-04-10T11:06:07.921Z</time>
      </trkpt>
      <trkpt lat="48.41184" lon="7.31059">
        <ele>784.4</ele>
        <time>2022-04-10T11:06:17.703Z</time>
      </trkpt>
      <trkpt lat="48.41169" lon="7.31067">
        <ele>784</ele>
        <time>2022-04-10T11:06:27.923Z</time>
      </trkpt>
      <trkpt lat="48.41157" lon="7.3107">
        <ele>783.6</ele>
        <time>2022-04-10T11:06:36.945Z</time>
      </trkpt>
      <trkpt lat="48.41141" lon="7.31074">
        <ele>782.8</ele>
        <time>2022-04-10T11:06:45.981Z</time>
      </trkpt>
      <trkpt lat="48.41131" lon="7.31087">
        <ele>782.5</ele>
        <time>2022-04-10T11:06:55.080Z</time>
      </trkpt>
      <trkpt lat="48.41122" lon="7.31105">
        <ele>782.6</ele>
        <time>2022-04-10T11:07:04.120Z</time>
      </trkpt>
      <trkpt lat="48.41111" lon="7.3111">
        <ele>781.8</ele>
        <time>2022-04-10T11:07:13.782Z</time>
      </trkpt>
      <trkpt lat="48.411" lon="7.31122">
        <ele>779.7</ele>
        <time>2022-04-10T11:07:23.000Z</time>
      </trkpt>
      <trkpt lat="48.41092" lon="7.31132">
        <ele>777.9</ele>
        <time>2022-04-10T11:07:32.341Z</time>
      </trkpt>
      <trkpt lat="48.41087" lon="7.31142">
        <ele>776.5</ele>
        <time>2022-04-10T11:07:41.362Z</time>
      </trkpt>
      <trkpt lat="48.41079" lon="7.31161">
        <ele>773.4</ele>
        <time>2022-04-10T11:07:50.441Z</time>
      </trkpt>
      <trkpt lat="48.41072" lon="7.31176">
        <ele>770.2</ele>
        <time>2022-04-10T11:07:59.624Z</time>
      </trkpt>
      <trkpt lat="48.41065" lon="7.31197">
        <ele>766.1</ele>
        <time>2022-04-10T11:08:09.021Z</time>
      </trkpt>
      <trkpt lat="48.41066" lon="7.31215">
        <ele>764.7</ele>
        <time>2022-04-10T11:08:18.742Z</time>
      </trkpt>
      <trkpt lat="48.41067" lon="7.31234">
        <ele>762.6</ele>
        <time>2022-04-10T11:08:28.284Z</time>
      </trkpt>
      <trkpt lat="48.41073" lon="7.31254">
        <ele>761.4</ele>
        <time>2022-04-10T11:08:37.563Z</time>
      </trkpt>
      <trkpt lat="48.41077" lon="7.31261">
        <ele>761.3</ele>
        <time>2022-04-10T11:08:47.004Z</time>
      </trkpt>
      <trkpt lat="48.41085" lon="7.31274">
        <ele>761.3</ele>
        <time>2022-04-10T11:08:56.762Z</time>
      </trkpt>
      <trkpt lat="48.41094" lon="7.31284">
        <ele>761.7</ele>
        <time>2022-04-10T11:09:05.840Z</time>
      </trkpt>
      <trkpt lat="48.41107" lon="7.31309">
        <ele>760.6</ele>
        <time>2022-04-10T11:09:15.333Z</time>
      </trkpt>
      <trkpt lat="48.41115" lon="7.31329">
        <ele>759.4</ele>
        <time>2022-04-10T11:09:24.963Z</time>
      </trkpt>
      <trkpt lat="48.4112" lon="7.31344">
        <ele>758.8</ele>
        <time>2022-04-10T11:09:34.081Z</time>
      </trkpt>
      <trkpt lat="48.41125" lon="7.31364">
        <ele>758.3</ele>
        <time>2022-04-10T11:09:43.101Z</time>
      </trkpt>
      <trkpt lat="48.41124" lon="7.31383">
        <ele>756.6</ele>
        <time>2022-04-10T11:09:52.943Z</time>
      </trkpt>
      <trkpt lat="48.41114" lon="7.31389">
        <ele>754.6</ele>
        <time>2022-04-10T11:10:02.084Z</time>
      </trkpt>
      <trkpt lat="48.4111" lon="7.3139">
        <ele>753.8</ele>
        <time>2022-04-10T11:10:11.722Z</time>
      </trkpt>
      <trkpt lat="48.41095" lon="7.31394">
        <ele>751.6</ele>
        <time>2022-04-10T11:10:20.844Z</time>
      </trkpt>
      <trkpt lat="48.41085" lon="7.31407">
        <ele>749.5</ele>
        <time>2022-04-10T11:10:30.063Z</time>
      </trkpt>
      <trkpt lat="48.41077" lon="7.31425">
        <ele>747.3</ele>
        <time>2022-04-10T11:10:39.722Z</time>
      </trkpt>
      <trkpt lat="48.4107" lon="7.31428">
        <ele>745.9</ele>
        <time>2022-04-10T11:10:49.000Z</time>
      </trkpt>
      <trkpt lat="48.41061" lon="7.31456">
        <ele>742.9</ele>
        <time>2022-04-10T11:10:58.863Z</time>
      </trkpt>
      <trkpt lat="48.41061" lon="7.31476">
        <ele>741.6</ele>
        <time>2022-04-10T11:11:08.883Z</time>
      </trkpt>
      <trkpt lat="48.41064" lon="7.31496">
        <ele>740.4</ele>
        <time>2022-04-10T11:11:17.900Z</time>
      </trkpt>
      <trkpt lat="48.41058" lon="7.3151">
        <ele>738.6</ele>
        <time>2022-04-10T11:11:27.000Z</time>
      </trkpt>
      <trkpt lat="48.41055" lon="7.31525">
        <ele>737.1</ele>
        <time>2022-04-10T11:11:36.903Z</time>
      </trkpt>
      <trkpt lat="48.41049" lon="7.3154">
        <ele>735.4</ele>
        <time>2022-04-10T11:11:45.941Z</time>
      </trkpt>
      <trkpt lat="48.41045" lon="7.31559">
        <ele>733.6</ele>
        <time>2022-04-10T11:11:55.349Z</time>
      </trkpt>
      <trkpt lat="48.41042" lon="7.31567">
        <ele>732.7</ele>
        <time>2022-04-10T11:12:04.984Z</time>
      </trkpt>
      <trkpt lat="48.4104" lon="7.31583">
        <ele>731.4</ele>
        <time>2022-04-10T11:12:15.103Z</time>
      </trkpt>
      <trkpt lat="48.41039" lon="7.31614">
        <ele>728.8</ele>
        <time>2022-04-10T11:12:24.144Z</time>
      </trkpt>
      <trkpt lat="48.41042" lon="7.31629">
        <ele>727.6</ele>
        <time>2022-04-10T11:12:33.763Z</time>
      </trkpt>
      <trkpt lat="48.41045" lon="7.31653">
        <ele>724.9</ele>
        <time>2022-04-10T11:12:43.044Z</time>
      </trkpt>
      <trkpt lat="48.41046" lon="7.31655">
        <ele>724.6</ele>
        <time>2022-04-10T11:12:52.337Z</time>
      </trkpt>
      <trkpt lat="48.41039" lon="7.31649">
        <ele>724.7</ele>
        <time>2022-04-10T11:13:02.000Z</time>
      </trkpt>
      <trkpt lat="48.41032" lon="7.3164">
        <ele>725.3</ele>
        <time>2022-04-10T11:13:11.188Z</time>
      </trkpt>
      <trkpt lat="48.41027" lon="7.31635">
        <ele>725.3</ele>
        <time>2022-04-10T11:13:20.461Z</time>
      </trkpt>
      <trkpt lat="48.41016" lon="7.31624">
        <ele>724.9</ele>
        <time>2022-04-10T11:13:29.702Z</time>
      </trkpt>
      <trkpt lat="48.41" lon="7.31613">
        <ele>723.8</ele>
        <time>2022-04-10T11:13:39.000Z</time>
      </trkpt>
      <trkpt lat="48.40989" lon="7.31608">
        <ele>723.1</ele>
        <time>2022-04-10T11:13:48.503Z</time>
      </trkpt>
      <trkpt lat="48.40978" lon="7.31606">
        <ele>722</ele>
        <time>2022-04-10T11:13:57.622Z</time>
      </trkpt>
      <trkpt lat="48.40967" lon="7.31596">
        <ele>721.4</ele>
        <time>2022-04-10T11:14:06.825Z</time>
      </trkpt>
      <trkpt lat="48.40964" lon="7.31581">
        <ele>722</ele>
        <time>2022-04-10T11:14:15.862Z</time>
      </trkpt>
      <trkpt lat="48.40965" lon="7.31569">
        <ele>723.1</ele>
        <time>2022-04-10T11:14:24.963Z</time>
      </trkpt>
      <trkpt lat="48.40967" lon="7.31555">
        <ele>724.3</ele>
        <time>2022-04-10T11:14:34.041Z</time>
      </trkpt>
      <trkpt lat="48.40967" lon="7.31547">
        <ele>724.9</ele>
        <time>2022-04-10T11:14:43.904Z</time>
      </trkpt>
      <trkpt lat="48.40964" lon="7.31517">
        <ele>726.6</ele>
        <time>2022-04-10T11:14:53.063Z</time>
      </trkpt>
      <trkpt lat="48.40955" lon="7.31498">
        <ele>726.7</ele>
        <time>2022-04-10T11:15:02.983Z</time>
      </trkpt>
      <trkpt lat="48.40952" lon="7.31491">
        <ele>726.7</ele>
        <time>2022-04-10T11:15:12.123Z</time>
      </trkpt>
      <trkpt lat="48.40946" lon="7.31479">
        <ele>726.8</ele>
        <time>2022-04-10T11:15:22.100Z</time>
      </trkpt>
      <trkpt lat="48.4094" lon="7.31467">
        <ele>726.5</ele>
        <time>2022-04-10T11:15:32.000Z</time>
      </trkpt>
      <trkpt lat="48.40928" lon="7.31446">
        <ele>725.5</ele>
        <time>2022-04-10T11:15:41.002Z</time>
      </trkpt>
      <trkpt lat="48.40927" lon="7.31442">
        <ele>725.6</ele>
        <time>2022-04-10T11:15:50.840Z</time>
      </trkpt>
      <trkpt lat="48.40913" lon="7.31409">
        <ele>725.7</ele>
        <time>2022-04-10T11:16:00.462Z</time>
      </trkpt>
      <trkpt lat="48.40909" lon="7.31399">
        <ele>725.7</ele>
        <time>2022-04-10T11:16:10.000Z</time>
      </trkpt>
      <trkpt lat="48.40905" lon="7.31388">
        <ele>725.8</ele>
        <time>2022-04-10T11:16:19.982Z</time>
      </trkpt>
      <trkpt lat="48.40893" lon="7.31374">
        <ele>725.5</ele>
        <time>2022-04-10T11:16:29.000Z</time>
      </trkpt>
      <trkpt lat="48.40893" lon="7.31372">
        <ele>725.6</ele>
        <time>2022-04-10T11:16:39.702Z</time>
      </trkpt>
      <trkpt lat="48.40886" lon="7.31359">
        <ele>725.6</ele>
        <time>2022-04-10T11:16:48.985Z</time>
      </trkpt>
      <trkpt lat="48.40872" lon="7.31341">
        <ele>724.8</ele>
        <time>2022-04-10T11:16:58.022Z</time>
      </trkpt>
      <trkpt lat="48.40859" lon="7.31326">
        <ele>724.3</ele>
        <time>2022-04-10T11:17:07.820Z</time>
      </trkpt>
      <trkpt lat="48.40851" lon="7.31304">
        <ele>725</ele>
        <time>2022-04-10T11:17:17.020Z</time>
      </trkpt>
      <trkpt lat="48.40839" lon="7.31288">
        <ele>724.8</ele>
        <time>2022-04-10T11:17:26.081Z</time>
      </trkpt>
      <trkpt lat="48.40837" lon="7.31287">
        <ele>724.7</ele>
        <time>2022-04-10T11:17:36.000Z</time>
      </trkpt>
      <trkpt lat="48.40836" lon="7.31285">
        <ele>724.8</ele>
        <time>2022-04-10T11:17:45.984Z</time>
      </trkpt>
      <trkpt lat="48.40828" lon="7.3128">
        <ele>724.4</ele>
        <time>2022-04-10T11:17:55.323Z</time>
      </trkpt>
      <trkpt lat="48.40818" lon="7.3126">
        <ele>724.6</ele>
        <time>2022-04-10T11:18:04.500Z</time>
      </trkpt>
      <trkpt lat="48.40807" lon="7.31243">
        <ele>724.4</ele>
        <time>2022-04-10T11:18:13.842Z</time>
      </trkpt>
      <trkpt lat="48.40801" lon="7.31227">
        <ele>724.5</ele>
        <time>2022-04-10T11:18:23.004Z</time>
      </trkpt>
      <trkpt lat="48.40799" lon="7.31213">
        <ele>724.9</ele>
        <time>2022-04-10T11:18:32.639Z</time>
      </trkpt>
      <trkpt lat="48.40796" lon="7.31193">
        <ele>725.3</ele>
        <time>2022-04-10T11:18:42.000Z</time>
      </trkpt>
      <trkpt lat="48.40794" lon="7.31172">
        <ele>725.2</ele>
        <time>2022-04-10T11:18:52.000Z</time>
      </trkpt>
      <trkpt lat="48.40794" lon="7.31154">
        <ele>724.9</ele>
        <time>2022-04-10T11:19:01.327Z</time>
      </trkpt>
      <trkpt lat="48.40796" lon="7.31138">
        <ele>725</ele>
        <time>2022-04-10T11:19:10.502Z</time>
      </trkpt>
      <trkpt lat="48.40802" lon="7.31121">
        <ele>725.6</ele>
        <time>2022-04-10T11:19:19.800Z</time>
      </trkpt>
      <trkpt lat="48.40812" lon="7.31101">
        <ele>726.4</ele>
        <time>2022-04-10T11:19:29.000Z</time>
      </trkpt>
      <trkpt lat="48.40811" lon="7.31084">
        <ele>725.6</ele>
        <time>2022-04-10T11:19:38.670Z</time>
      </trkpt>
      <trkpt lat="48.40819" lon="7.31079">
        <ele>726</ele>
        <time>2022-04-10T11:19:47.991Z</time>
      </trkpt>
      <trkpt lat="48.40826" lon="7.31063">
        <ele>725</ele>
        <time>2022-04-10T11:19:58.071Z</time>
      </trkpt>
      <trkpt lat="48.40836" lon="7.31043">
        <ele>724</ele>
        <time>2022-04-10T11:20:07.646Z</time>
      </trkpt>
      <trkpt lat="48.40844" lon="7.3103">
        <ele>723.8</ele>
        <time>2022-04-10T11:20:17.028Z</time>
      </trkpt>
      <trkpt lat="48.40853" lon="7.31011">
        <ele>723</ele>
        <time>2022-04-10T11:20:26.533Z</time>
      </trkpt>
      <trkpt lat="48.40864" lon="7.30996">
        <ele>723.2</ele>
        <time>2022-04-10T11:20:35.652Z</time>
      </trkpt>
      <trkpt lat="48.40855" lon="7.30992">
        <ele>721.5</ele>
        <time>2022-04-10T11:20:45.000Z</time>
      </trkpt>
      <trkpt lat="48.40849" lon="7.30976">
        <ele>719.6</ele>
        <time>2022-04-10T11:20:54.555Z</time>
      </trkpt>
      <trkpt lat="48.40864" lon="7.3095">
        <ele>719.9</ele>
        <time>2022-04-10T11:21:03.913Z</time>
      </trkpt>
      <trkpt lat="48.40871" lon="7.30934">
        <ele>719.6</ele>
        <time>2022-04-10T11:21:12.933Z</time>
      </trkpt>
      <trkpt lat="48.4088" lon="7.3092">
        <ele>719.8</ele>
        <time>2022-04-10T11:21:22.553Z</time>
      </trkpt>
      <trkpt lat="48.40888" lon="7.30904">
        <ele>719.9</ele>
        <time>2022-04-10T11:21:31.975Z</time>
      </trkpt>
      <trkpt lat="48.40889" lon="7.30892">
        <ele>719.2</ele>
        <time>2022-04-10T11:21:41.000Z</time>
      </trkpt>
      <trkpt lat="48.40883" lon="7.30873">
        <ele>715.8</ele>
        <time>2022-04-10T11:21:50.014Z</time>
      </trkpt>
      <trkpt lat="48.40877" lon="7.3086">
        <ele>713.2</ele>
        <time>2022-04-10T11:21:59.993Z</time>
      </trkpt>
      <trkpt lat="48.40877" lon="7.30842">
        <ele>711.6</ele>
        <time>2022-04-10T11:22:09.618Z</time>
      </trkpt>
      <trkpt lat="48.40888" lon="7.30822">
        <ele>711.6</ele>
        <time>2022-04-10T11:22:19.000Z</time>
      </trkpt>
      <trkpt lat="48.40906" lon="7.30817">
        <ele>713.4</ele>
        <time>2022-04-10T11:22:28.855Z</time>
      </trkpt>
      <trkpt lat="48.40915" lon="7.30806">
        <ele>712.9</ele>
        <time>2022-04-10T11:22:38.035Z</time>
      </trkpt>
      <trkpt lat="48.40921" lon="7.308">
        <ele>713.6</ele>
        <time>2022-04-10T11:22:47.075Z</time>
      </trkpt>
      <trkpt lat="48.40931" lon="7.30791">
        <ele>714.8</ele>
        <time>2022-04-10T11:22:56.175Z</time>
      </trkpt>
      <trkpt lat="48.40951" lon="7.30768">
        <ele>716.6</ele>
        <time>2022-04-10T11:23:05.357Z</time>
      </trkpt>
      <trkpt lat="48.40947" lon="7.30752">
        <ele>716.2</ele>
        <time>2022-04-10T11:23:14.972Z</time>
      </trkpt>
      <trkpt lat="48.40949" lon="7.30731">
        <ele>715.6</ele>
        <time>2022-04-10T11:23:23.990Z</time>
      </trkpt>
      <trkpt lat="48.40963" lon="7.3072">
        <ele>716.4</ele>
        <time>2022-04-10T11:23:33.000Z</time>
      </trkpt>
      <trkpt lat="48.40964" lon="7.30705">
        <ele>717</ele>
        <time>2022-04-10T11:23:43.000Z</time>
      </trkpt>
      <trkpt lat="48.40944" lon="7.30698">
        <ele>715.9</ele>
        <time>2022-04-10T11:23:53.000Z</time>
      </trkpt>
      <trkpt lat="48.40942" lon="7.30697">
        <ele>716</ele>
        <time>2022-04-10T11:24:13.000Z</time>
      </trkpt>
      <trkpt lat="48.40943" lon="7.30698">
        <ele>715.9</ele>
        <time>2022-04-10T11:24:24.000Z</time>
      </trkpt>
      <trkpt lat="48.40941" lon="7.3071">
        <ele>715.5</ele>
        <time>2022-04-10T11:24:33.492Z</time>
      </trkpt>
      <trkpt lat="48.40934" lon="7.30725">
        <ele>715</ele>
        <time>2022-04-10T11:24:42.534Z</time>
      </trkpt>
      <trkpt lat="48.40922" lon="7.30741">
        <ele>714.6</ele>
        <time>2022-04-10T11:24:51.812Z</time>
      </trkpt>
      <trkpt lat="48.40914" lon="7.30743">
        <ele>714.2</ele>
        <time>2022-04-10T11:25:01.000Z</time>
      </trkpt>
      <trkpt lat="48.40911" lon="7.30742">
        <ele>714.2</ele>
        <time>2022-04-10T11:25:11.000Z</time>
      </trkpt>
      <trkpt lat="48.40911" lon="7.3074">
        <ele>714.3</ele>
        <time>2022-04-10T11:25:20.030Z</time>
      </trkpt>
      <trkpt lat="48.40907" lon="7.30733">
        <ele>714.7</ele>
        <time>2022-04-10T11:25:29.092Z</time>
      </trkpt>
      <trkpt lat="48.40901" lon="7.30728">
        <ele>715.1</ele>
        <time>2022-04-10T11:25:39.000Z</time>
      </trkpt>
      <trkpt lat="48.40898" lon="7.30728">
        <ele>715.2</ele>
        <time>2022-04-10T11:25:48.339Z</time>
      </trkpt>
      <trkpt lat="48.40891" lon="7.30735">
        <ele>714.6</ele>
        <time>2022-04-10T11:25:57.955Z</time>
      </trkpt>
      <trkpt lat="48.40879" lon="7.30742">
        <ele>713.8</ele>
        <time>2022-04-10T11:26:07.436Z</time>
      </trkpt>
      <trkpt lat="48.40869" lon="7.3074">
        <ele>713.8</ele>
        <time>2022-04-10T11:26:17.000Z</time>
      </trkpt>
      <trkpt lat="48.40859" lon="7.3074">
        <ele>714</ele>
        <time>2022-04-10T11:26:26.995Z</time>
      </trkpt>
      <trkpt lat="48.40851" lon="7.30743">
        <ele>714.5</ele>
        <time>2022-04-10T11:26:36.096Z</time>
      </trkpt>
      <trkpt lat="48.4085" lon="7.30743">
        <ele>714.5</ele>
        <time>2022-04-10T11:26:46.000Z</time>
      </trkpt>
      <trkpt lat="48.40845" lon="7.3075">
        <ele>713.8</ele>
        <time>2022-04-10T11:26:56.000Z</time>
      </trkpt>
      <trkpt lat="48.40843" lon="7.30751">
        <ele>713.8</ele>
        <time>2022-04-10T11:27:05.013Z</time>
      </trkpt>
      <trkpt lat="48.40837" lon="7.30768">
        <ele>711</ele>
        <time>2022-04-10T11:27:14.813Z</time>
      </trkpt>
      <trkpt lat="48.40827" lon="7.3078">
        <ele>709</ele>
        <time>2022-04-10T11:27:24.000Z</time>
      </trkpt>
      <trkpt lat="48.40818" lon="7.30791">
        <ele>707.9</ele>
        <time>2022-04-10T11:27:33.790Z</time>
      </trkpt>
      <trkpt lat="48.40803" lon="7.30804">
        <ele>706.2</ele>
        <time>2022-04-10T11:27:42.833Z</time>
      </trkpt>
      <trkpt lat="48.40796" lon="7.30807">
        <ele>706</ele>
        <time>2022-04-10T11:27:51.931Z</time>
      </trkpt>
      <trkpt lat="48.40792" lon="7.30809">
        <ele>705.9</ele>
        <time>2022-04-10T11:28:00.932Z</time>
      </trkpt>
      <trkpt lat="48.40768" lon="7.30826">
        <ele>704.6</ele>
        <time>2022-04-10T11:28:10.090Z</time>
      </trkpt>
      <trkpt lat="48.40752" lon="7.30821">
        <ele>704</ele>
        <time>2022-04-10T11:28:19.836Z</time>
      </trkpt>
      <trkpt lat="48.40736" lon="7.30822">
        <ele>703.1</ele>
        <time>2022-04-10T11:28:29.000Z</time>
      </trkpt>
      <trkpt lat="48.4073" lon="7.30817">
        <ele>703.2</ele>
        <time>2022-04-10T11:28:39.538Z</time>
      </trkpt>
      <trkpt lat="48.40716" lon="7.30816">
        <ele>702</ele>
        <time>2022-04-10T11:28:50.000Z</time>
      </trkpt>
      <trkpt lat="48.40708" lon="7.30814">
        <ele>701.1</ele>
        <time>2022-04-10T11:29:00.000Z</time>
      </trkpt>
      <trkpt lat="48.40706" lon="7.30821">
        <ele>700</ele>
        <time>2022-04-10T11:29:09.573Z</time>
      </trkpt>
      <trkpt lat="48.40702" lon="7.30828">
        <ele>698.7</ele>
        <time>2022-04-10T11:29:18.693Z</time>
      </trkpt>
      <trkpt lat="48.40704" lon="7.3082">
        <ele>699.7</ele>
        <time>2022-04-10T11:29:27.774Z</time>
      </trkpt>
      <trkpt lat="48.40697" lon="7.30813">
        <ele>699.6</ele>
        <time>2022-04-10T11:29:37.000Z</time>
      </trkpt>
      <trkpt lat="48.40691" lon="7.30796">
        <ele>701.3</ele>
        <time>2022-04-10T11:29:46.893Z</time>
      </trkpt>
      <trkpt lat="48.40678" lon="7.30787">
        <ele>701.1</ele>
        <time>2022-04-10T11:29:55.952Z</time>
      </trkpt>
      <trkpt lat="48.40673" lon="7.3079">
        <ele>700.1</ele>
        <time>2022-04-10T11:30:05.000Z</time>
      </trkpt>
      <trkpt lat="48.40658" lon="7.30792">
        <ele>698.2</ele>
        <time>2022-04-10T11:30:15.132Z</time>
      </trkpt>
      <trkpt lat="48.40645" lon="7.30787">
        <ele>697.9</ele>
        <time>2022-04-10T11:30:24.775Z</time>
      </trkpt>
      <trkpt lat="48.40626" lon="7.30786">
        <ele>697.3</ele>
        <time>2022-04-10T11:30:33.916Z</time>
      </trkpt>
      <trkpt lat="48.40616" lon="7.30785">
        <ele>697.4</ele>
        <time>2022-04-10T11:30:43.096Z</time>
      </trkpt>
      <trkpt lat="48.4061" lon="7.30785">
        <ele>697.5</ele>
        <time>2022-04-10T11:30:52.552Z</time>
      </trkpt>
      <trkpt lat="48.40589" lon="7.30781">
        <ele>698</ele>
        <time>2022-04-10T11:31:02.074Z</time>
      </trkpt>
      <trkpt lat="48.40575" lon="7.30778">
        <ele>698.9</ele>
        <time>2022-04-10T11:31:11.235Z</time>
      </trkpt>
      <trkpt lat="48.40574" lon="7.30778">
        <ele>699</ele>
        <time>2022-04-10T11:31:20.812Z</time>
      </trkpt>
      <trkpt lat="48.40565" lon="7.30776">
        <ele>699.4</ele>
        <time>2022-04-10T11:31:29.816Z</time>
      </trkpt>
      <trkpt lat="48.40551" lon="7.30777">
        <ele>699.4</ele>
        <time>2022-04-10T11:31:39.000Z</time>
      </trkpt>
      <trkpt lat="48.40532" lon="7.30784">
        <ele>697.8</ele>
        <time>2022-04-10T11:31:48.795Z</time>
      </trkpt>
      <trkpt lat="48.4052" lon="7.30796">
        <ele>694.4</ele>
        <time>2022-04-10T11:31:58.095Z</time>
      </trkpt>
      <trkpt lat="48.40506" lon="7.30795">
        <ele>695.2</ele>
        <time>2022-04-10T11:32:07.672Z</time>
      </trkpt>
      <trkpt lat="48.40498" lon="7.30792">
        <ele>696.7</ele>
        <time>2022-04-10T11:32:16.891Z</time>
      </trkpt>
      <trkpt lat="48.40488" lon="7.30791">
        <ele>697.4</ele>
        <time>2022-04-10T11:32:26.991Z</time>
      </trkpt>
      <trkpt lat="48.40482" lon="7.30791">
        <ele>697.8</ele>
        <time>2022-04-10T11:32:36.133Z</time>
      </trkpt>
      <trkpt lat="48.40469" lon="7.3079">
        <ele>698.5</ele>
        <time>2022-04-10T11:32:45.754Z</time>
      </trkpt>
      <trkpt lat="48.40453" lon="7.30787">
        <ele>700.3</ele>
        <time>2022-04-10T11:32:55.115Z</time>
      </trkpt>
      <trkpt lat="48.40445" lon="7.30783">
        <ele>701.7</ele>
        <time>2022-04-10T11:33:04.653Z</time>
      </trkpt>
      <trkpt lat="48.40434" lon="7.3077">
        <ele>704</ele>
        <time>2022-04-10T11:33:13.673Z</time>
      </trkpt>
      <trkpt lat="48.40425" lon="7.30748">
        <ele>707.6</ele>
        <time>2022-04-10T11:33:23.051Z</time>
      </trkpt>
      <trkpt lat="48.40421" lon="7.3074">
        <ele>708.3</ele>
        <time>2022-04-10T11:33:32.596Z</time>
      </trkpt>
      <trkpt lat="48.40415" lon="7.30726">
        <ele>709.5</ele>
        <time>2022-04-10T11:33:41.774Z</time>
      </trkpt>
      <trkpt lat="48.40407" lon="7.30703">
        <ele>711.4</ele>
        <time>2022-04-10T11:33:50.894Z</time>
      </trkpt>
      <trkpt lat="48.404" lon="7.30691">
        <ele>712.2</ele>
        <time>2022-04-10T11:34:00.794Z</time>
      </trkpt>
      <trkpt lat="48.40393" lon="7.30672">
        <ele>713.7</ele>
        <time>2022-04-10T11:34:10.000Z</time>
      </trkpt>
      <trkpt lat="48.40388" lon="7.30653">
        <ele>714.8</ele>
        <time>2022-04-10T11:34:19.556Z</time>
      </trkpt>
      <trkpt lat="48.40386" lon="7.30635">
        <ele>715.7</ele>
        <time>2022-04-10T11:34:28.715Z</time>
      </trkpt>
      <trkpt lat="48.40384" lon="7.30614">
        <ele>716.6</ele>
        <time>2022-04-10T11:34:37.954Z</time>
      </trkpt>
      <trkpt lat="48.40382" lon="7.30597">
        <ele>717.7</ele>
        <time>2022-04-10T11:34:47.000Z</time>
      </trkpt>
      <trkpt lat="48.40377" lon="7.30579">
        <ele>718.1</ele>
        <time>2022-04-10T11:34:56.053Z</time>
      </trkpt>
      <trkpt lat="48.40375" lon="7.30572">
        <ele>718.2</ele>
        <time>2022-04-10T11:35:05.435Z</time>
      </trkpt>
      <trkpt lat="48.4037" lon="7.30549">
        <ele>718.9</ele>
        <time>2022-04-10T11:35:14.556Z</time>
      </trkpt>
      <trkpt lat="48.40363" lon="7.30509">
        <ele>720.7</ele>
        <time>2022-04-10T11:35:23.972Z</time>
      </trkpt>
      <trkpt lat="48.40368" lon="7.30499">
        <ele>722.2</ele>
        <time>2022-04-10T11:35:33.030Z</time>
      </trkpt>
      <trkpt lat="48.40368" lon="7.30475">
        <ele>724.1</ele>
        <time>2022-04-10T11:35:43.116Z</time>
      </trkpt>
      <trkpt lat="48.40366" lon="7.30462">
        <ele>724.9</ele>
        <time>2022-04-10T11:35:52.594Z</time>
      </trkpt>
      <trkpt lat="48.40361" lon="7.3045">
        <ele>725.3</ele>
        <time>2022-04-10T11:36:02.075Z</time>
      </trkpt>
      <trkpt lat="48.40352" lon="7.30435">
        <ele>725</ele>
        <time>2022-04-10T11:36:12.133Z</time>
      </trkpt>
      <trkpt lat="48.40339" lon="7.30421">
        <ele>723.7</ele>
        <time>2022-04-10T11:36:22.000Z</time>
      </trkpt>
      <trkpt lat="48.40329" lon="7.30413">
        <ele>722.4</ele>
        <time>2022-04-10T11:36:31.071Z</time>
      </trkpt>
      <trkpt lat="48.40318" lon="7.304">
        <ele>721.6</ele>
        <time>2022-04-10T11:36:40.533Z</time>
      </trkpt>
      <trkpt lat="48.40316" lon="7.30387">
        <ele>722.5</ele>
        <time>2022-04-10T11:36:49.995Z</time>
      </trkpt>
      <trkpt lat="48.40315" lon="7.30372">
        <ele>723.2</ele>
        <time>2022-04-10T11:36:59.999Z</time>
      </trkpt>
      <trkpt lat="48.40306" lon="7.30355">
        <ele>722.8</ele>
        <time>2022-04-10T11:37:09.773Z</time>
      </trkpt>
      <trkpt lat="48.40303" lon="7.30344">
        <ele>723.4</ele>
        <time>2022-04-10T11:37:19.000Z</time>
      </trkpt>
      <trkpt lat="48.403" lon="7.30331">
        <ele>724.1</ele>
        <time>2022-04-10T11:37:28.717Z</time>
      </trkpt>
      <trkpt lat="48.40292" lon="7.30322">
        <ele>723.7</ele>
        <time>2022-04-10T11:37:38.251Z</time>
      </trkpt>
      <trkpt lat="48.40279" lon="7.3032">
        <ele>721.5</ele>
        <time>2022-04-10T11:37:47.675Z</time>
      </trkpt>
      <trkpt lat="48.40266" lon="7.30322">
        <ele>719.2</ele>
        <time>2022-04-10T11:37:56.933Z</time>
      </trkpt>
      <trkpt lat="48.40258" lon="7.30323">
        <ele>718.1</ele>
        <time>2022-04-10T11:38:06.000Z</time>
      </trkpt>
      <trkpt lat="48.40241" lon="7.30319">
        <ele>716.4</ele>
        <time>2022-04-10T11:38:16.000Z</time>
      </trkpt>
      <trkpt lat="48.40229" lon="7.30311">
        <ele>716.2</ele>
        <time>2022-04-10T11:38:25.032Z</time>
      </trkpt>
      <trkpt lat="48.40223" lon="7.30302">
        <ele>716.8</ele>
        <time>2022-04-10T11:38:34.131Z</time>
      </trkpt>
      <trkpt lat="48.40202" lon="7.30284">
        <ele>717.1</ele>
        <time>2022-04-10T11:38:43.756Z</time>
      </trkpt>
      <trkpt lat="48.40198" lon="7.30277">
        <ele>717.6</ele>
        <time>2022-04-10T11:38:53.000Z</time>
      </trkpt>
      <trkpt lat="48.40197" lon="7.30274">
        <ele>717.9</ele>
        <time>2022-04-10T11:39:03.000Z</time>
      </trkpt>
      <trkpt lat="48.40187" lon="7.30265">
        <ele>718.3</ele>
        <time>2022-04-10T11:39:13.000Z</time>
      </trkpt>
      <trkpt lat="48.40177" lon="7.30276">
        <ele>714.7</ele>
        <time>2022-04-10T11:39:22.075Z</time>
      </trkpt>
      <trkpt lat="48.40178" lon="7.30281">
        <ele>714</ele>
        <time>2022-04-10T11:39:32.000Z</time>
      </trkpt>
      <trkpt lat="48.40176" lon="7.30279">
        <ele>714.1</ele>
        <time>2022-04-10T11:39:41.033Z</time>
      </trkpt>
      <trkpt lat="48.40165" lon="7.30268">
        <ele>714.5</ele>
        <time>2022-04-10T11:39:50.131Z</time>
      </trkpt>
      <trkpt lat="48.40162" lon="7.30266">
        <ele>714.3</ele>
        <time>2022-04-10T11:39:59.676Z</time>
      </trkpt>
      <trkpt lat="48.40146" lon="7.30238">
        <ele>716.3</ele>
        <time>2022-04-10T11:40:09.000Z</time>
      </trkpt>
      <trkpt lat="48.40135" lon="7.30222">
        <ele>717.2</ele>
        <time>2022-04-10T11:40:18.835Z</time>
      </trkpt>
      <trkpt lat="48.40126" lon="7.3021">
        <ele>717.3</ele>
        <time>2022-04-10T11:40:27.855Z</time>
      </trkpt>
      <trkpt lat="48.40118" lon="7.30198">
        <ele>717.6</ele>
        <time>2022-04-10T11:40:37.352Z</time>
      </trkpt>
      <trkpt lat="48.40111" lon="7.30187">
        <ele>718.2</ele>
        <time>2022-04-10T11:40:47.035Z</time>
      </trkpt>
      <trkpt lat="48.40092" lon="7.30168">
        <ele>718.2</ele>
        <time>2022-04-10T11:40:56.535Z</time>
      </trkpt>
      <trkpt lat="48.40094" lon="7.3016">
        <ele>720.2</ele>
        <time>2022-04-10T11:41:05.753Z</time>
      </trkpt>
      <trkpt lat="48.40093" lon="7.30159">
        <ele>720.1</ele>
        <time>2022-04-10T11:41:15.000Z</time>
      </trkpt>
      <trkpt lat="48.40084" lon="7.30152">
        <ele>720.1</ele>
        <time>2022-04-10T11:41:24.571Z</time>
      </trkpt>
      <trkpt lat="48.40065" lon="7.30149">
        <ele>717.4</ele>
        <time>2022-04-10T11:41:34.000Z</time>
      </trkpt>
      <trkpt lat="48.40062" lon="7.30141">
        <ele>718.8</ele>
        <time>2022-04-10T11:41:43.715Z</time>
      </trkpt>
      <trkpt lat="48.40053" lon="7.30125">
        <ele>720.6</ele>
        <time>2022-04-10T11:41:53.000Z</time>
      </trkpt>
      <trkpt lat="48.4005" lon="7.30124">
        <ele>720.2</ele>
        <time>2022-04-10T11:42:02.951Z</time>
      </trkpt>
      <trkpt lat="48.40052" lon="7.30125">
        <ele>720.4</ele>
        <time>2022-04-10T11:42:37.000Z</time>
      </trkpt>
      <trkpt lat="48.40057" lon="7.30134">
        <ele>719.3</ele>
        <time>2022-04-10T11:42:46.456Z</time>
      </trkpt>
      <trkpt lat="48.40052" lon="7.30146">
        <ele>715.8</ele>
        <time>2022-04-10T11:42:56.000Z</time>
      </trkpt>
      <trkpt lat="48.40058" lon="7.3016">
        <ele>714</ele>
        <time>2022-04-10T11:43:06.000Z</time>
      </trkpt>
      <trkpt lat="48.40055" lon="7.30179">
        <ele>709.4</ele>
        <time>2022-04-10T11:43:15.776Z</time>
      </trkpt>
      <trkpt lat="48.4005" lon="7.30189">
        <ele>706.3</ele>
        <time>2022-04-10T11:43:25.011Z</time>
      </trkpt>
      <trkpt lat="48.40045" lon="7.30199">
        <ele>703.2</ele>
        <time>2022-04-10T11:43:35.000Z</time>
      </trkpt>
      <trkpt lat="48.40039" lon="7.30194">
        <ele>703</ele>
        <time>2022-04-10T11:43:44.111Z</time>
      </trkpt>
      <trkpt lat="48.40042" lon="7.30178">
        <ele>707.2</ele>
        <time>2022-04-10T11:43:53.394Z</time>
      </trkpt>
      <trkpt lat="48.40043" lon="7.30174">
        <ele>708</ele>
        <time>2022-04-10T11:44:02.856Z</time>
      </trkpt>
      <trkpt lat="48.4004" lon="7.30162">
        <ele>710.4</ele>
        <time>2022-04-10T11:44:12.000Z</time>
      </trkpt>
      <trkpt lat="48.40041" lon="7.30158">
        <ele>711.3</ele>
        <time>2022-04-10T11:44:21.773Z</time>
      </trkpt>
      <trkpt lat="48.4004" lon="7.30156">
        <ele>711.5</ele>
        <time>2022-04-10T11:44:59.114Z</time>
      </trkpt>
      <trkpt lat="48.40034" lon="7.30149">
        <ele>711.9</ele>
        <time>2022-04-10T11:45:09.000Z</time>
      </trkpt>
      <trkpt lat="48.40033" lon="7.30152">
        <ele>711</ele>
        <time>2022-04-10T11:45:56.895Z</time>
      </trkpt>
      <trkpt lat="48.40026" lon="7.30164">
        <ele>707.2</ele>
        <time>2022-04-10T11:46:06.000Z</time>
      </trkpt>
      <trkpt lat="48.40014" lon="7.30176">
        <ele>702.6</ele>
        <time>2022-04-10T11:46:16.000Z</time>
      </trkpt>
      <trkpt lat="48.40005" lon="7.30185">
        <ele>698.9</ele>
        <time>2022-04-10T11:46:26.056Z</time>
      </trkpt>
      <trkpt lat="48.39998" lon="7.30197">
        <ele>696.1</ele>
        <time>2022-04-10T11:46:35.211Z</time>
      </trkpt>
      <trkpt lat="48.39993" lon="7.30224">
        <ele>691.8</ele>
        <time>2022-04-10T11:46:44.339Z</time>
      </trkpt>
      <trkpt lat="48.39991" lon="7.30243">
        <ele>689.8</ele>
        <time>2022-04-10T11:46:53.574Z</time>
      </trkpt>
      <trkpt lat="48.39994" lon="7.30259">
        <ele>687.2</ele>
        <time>2022-04-10T11:47:02.633Z</time>
      </trkpt>
      <trkpt lat="48.39993" lon="7.30267">
        <ele>686</ele>
        <time>2022-04-10T11:47:11.954Z</time>
      </trkpt>
      <trkpt lat="48.39989" lon="7.30259">
        <ele>688</ele>
        <time>2022-04-10T11:47:21.061Z</time>
      </trkpt>
      <trkpt lat="48.39999" lon="7.3031">
        <ele>679.7</ele>
        <time>2022-04-10T11:47:30.404Z</time>
      </trkpt>
      <trkpt lat="48.39998" lon="7.3034">
        <ele>676.8</ele>
        <time>2022-04-10T11:47:40.000Z</time>
      </trkpt>
      <trkpt lat="48.39993" lon="7.30356">
        <ele>675.9</ele>
        <time>2022-04-10T11:47:49.121Z</time>
      </trkpt>
      <trkpt lat="48.39989" lon="7.30373">
        <ele>674.5</ele>
        <time>2022-04-10T11:47:58.564Z</time>
      </trkpt>
      <trkpt lat="48.39985" lon="7.3039">
        <ele>673</ele>
        <time>2022-04-10T11:48:07.673Z</time>
      </trkpt>
      <trkpt lat="48.39996" lon="7.30429">
        <ele>668.3</ele>
        <time>2022-04-10T11:48:17.000Z</time>
      </trkpt>
      <trkpt lat="48.40007" lon="7.30459">
        <ele>666.4</ele>
        <time>2022-04-10T11:48:27.000Z</time>
      </trkpt>
      <trkpt lat="48.4001" lon="7.30463">
        <ele>666.4</ele>
        <time>2022-04-10T11:48:36.333Z</time>
      </trkpt>
      <trkpt lat="48.40011" lon="7.30461">
        <ele>666.8</ele>
        <time>2022-04-10T11:48:45.815Z</time>
      </trkpt>
      <trkpt lat="48.40011" lon="7.30463">
        <ele>666.5</ele>
        <time>2022-04-10T11:48:55.897Z</time>
      </trkpt>
      <trkpt lat="48.40007" lon="7.30503">
        <ele>661.8</ele>
        <time>2022-04-10T11:49:05.115Z</time>
      </trkpt>
      <trkpt lat="48.40006" lon="7.30521">
        <ele>660.2</ele>
        <time>2022-04-10T11:49:14.833Z</time>
      </trkpt>
      <trkpt lat="48.40008" lon="7.30531">
        <ele>659.5</ele>
        <time>2022-04-10T11:49:24.000Z</time>
      </trkpt>
      <trkpt lat="48.40014" lon="7.30541">
        <ele>659.1</ele>
        <time>2022-04-10T11:49:33.034Z</time>
      </trkpt>
      <trkpt lat="48.4002" lon="7.30553">
        <ele>658.4</ele>
        <time>2022-04-10T11:49:42.331Z</time>
      </trkpt>
      <trkpt lat="48.40025" lon="7.30569">
        <ele>657.4</ele>
        <time>2022-04-10T11:49:51.835Z</time>
      </trkpt>
      <trkpt lat="48.40021" lon="7.30566">
        <ele>657.3</ele>
        <time>2022-04-10T11:50:01.014Z</time>
      </trkpt>
      <trkpt lat="48.40037" lon="7.30592">
        <ele>655.9</ele>
        <time>2022-04-10T11:50:10.077Z</time>
      </trkpt>
      <trkpt lat="48.40035" lon="7.30611">
        <ele>653.5</ele>
        <time>2022-04-10T11:50:19.813Z</time>
      </trkpt>
      <trkpt lat="48.40032" lon="7.30626">
        <ele>652.2</ele>
        <time>2022-04-10T11:50:28.994Z</time>
      </trkpt>
      <trkpt lat="48.40029" lon="7.30637">
        <ele>651.2</ele>
        <time>2022-04-10T11:50:38.310Z</time>
      </trkpt>
      <trkpt lat="48.40025" lon="7.30652">
        <ele>650</ele>
        <time>2022-04-10T11:50:47.000Z</time>
      </trkpt>
    </trkseg>
  </trk>
</gpx>